M I D A S
Marine Information and Data Acquisition System
Tripno 2298 of the Zeeleeuw from 2012-04-27 08:13:43 to 2012-04-27 12:59:57
Back to CruiseResearch ActivitiesStationsMapUnderway DataData graphs

EquipmentUnitsComment
TimeDGPSUTC
LatitudeDGPSDM.mWGS84
LongitudeDGPSDM.mWGS84
TemperatureSBE03/SBE38deg celciusITS90
ConductivitySBE21S/mITS90
SalinitySBE21 Practical Salinity Units
ChlorophylAChelsea fluorimeterg/lCalibrated in Aceton
Missing or incorrect values are displayed as -999
Sea surface data collected by the RV Zeeleeuw from 2012-04-27 08:11:11 to 2012-04-27 15:30:21
                                                                                    Next 1000 lines
Time Latitude Longitude Temperature Conductivity Salinity ChlorophylA
2012-04-27 08:11:21 51°13.636 2°56.014 16.927 0.943814 5.954588 -2.458615
2012-04-27 08:11:26 51°13.637 2°56.01 17.2138 0.939179 5.92303 -2.458615
2012-04-27 08:11:31 51°13.639 2°56.005 17.2425 0.961323 6.073639 -2.458615
2012-04-27 08:11:37 51°13.64 2°55.998 17.3022 0.954113 6.024748 -2.458615
2012-04-27 08:11:41 51°13.642 2°55.992 17.2802 0.958954 6.057646 -2.458615
2012-04-27 08:11:46 51°13.644 2°55.985 17.3072 0.958954 6.057646 -2.458615
2012-04-27 08:11:51 51°13.646 2°55.976 17.2797 0.944741 5.961098 -2.458615
2012-04-27 08:11:57 51°13.648 2°55.966 17.2849 0.953701 6.021949 -2.458615
2012-04-27 08:12:01 51°13.65 2°55.958 17.3849 0.956482 6.040956 -2.458615
2012-04-27 08:12:06 51°13.653 2°55.949 17.3572 0.958027 6.051345 -2.458615
2012-04-27 08:12:11 51°13.655 2°55.938 17.3849 0.964928 6.098375 -2.458615
2012-04-27 08:12:16 51°13.658 2°55.928 17.4147 0.964928 6.098375 -2.458615
2012-04-27 08:12:21 51°13.66 2°55.918 17.4095 0.957409 6.047366 -2.458615
2012-04-27 08:12:26 51°13.662 2°55.908 17.419 0.950199 5.998381 -2.458615
2012-04-27 08:12:31 51°13.664 2°55.898 17.4077 0.962044 6.078875 -2.458615
2012-04-27 08:12:36 51°13.667 2°55.888 17.4185 0.958645 6.055878 -2.458615
2012-04-27 08:12:41 51°13.669 2°55.878 17.4178 0.968944 6.125926 -2.458615
2012-04-27 08:12:46 51°13.671 2°55.868 17.4422 0.968944 6.125926 -2.458615
2012-04-27 08:12:51 51°13.673 2°55.859 17.4581 0.958748 6.056578 -2.458615
2012-04-27 08:12:56 51°13.675 2°55.849 17.4544 0.968017 6.119618 -2.458615
2012-04-27 08:13:01 51°13.677 2°55.84 17.4471 0.958027 6.051677 -2.458615
2012-04-27 08:13:06 51°13.679 2°55.832 17.4438 0.963074 6.08599 -2.458615
2012-04-27 08:13:11 51°13.681 2°55.823 17.4398 0.965031 6.099411 -2.458615
2012-04-27 08:13:16 51°13.682 2°55.814 17.4334 0.965031 6.099411 -2.458615
2012-04-27 08:13:21 51°13.684 2°55.806 17.4295 0.963383 6.088202 -2.458615
2012-04-27 08:13:26 51°13.686 2°55.797 17.4251 0.964413 6.095207 -2.458615
2012-04-27 08:13:31 51°13.687 2°55.79 17.42 0.965855 6.105016 -2.458615
2012-04-27 08:13:36 51°13.688 2°55.782 17.4183 0.967399 6.115638 -2.458615
2012-04-27 08:13:41 51°13.689 2°55.774 17.4265 0.965443 6.102325 -2.458615
2012-04-27 08:13:46 51°13.69 2°55.767 17.4296 0.965443 6.102325 -2.458615
2012-04-27 08:13:51 51°13.691 2°55.761 17.4278 0.973991 6.160613 -2.458615
2012-04-27 08:13:56 51°13.692 2°55.756 17.4818 0.987484 6.252531 -2.458615
2012-04-27 08:14:01 51°13.693 2°55.754 17.4799 1.001596 6.349135 -2.458615
2012-04-27 08:14:06 51°13.694 2°55.754 17.4802 0.952877 6.017122 -2.458615
2012-04-27 08:14:11 51°13.695 2°55.754 17.4749 0.948037 5.984131 -2.458615
2012-04-27 08:14:16 51°13.696 2°55.755 17.4661 0.948037 5.984131 -2.458615
2012-04-27 08:14:21 51°13.697 2°55.756 17.4707 0.95401 6.02482 -2.458615
2012-04-27 08:14:26 51°13.699 2°55.758 17.4615 0.945977 5.970253 -2.458615
2012-04-27 08:14:31 51°13.7 2°55.759 17.4507 0.939488 5.926211 -2.458615
2012-04-27 08:14:36 51°13.703 2°55.76 17.4363 0.923628 5.818565 -2.458615
2012-04-27 08:14:41 51°13.704 2°55.761 17.2103 0.923319 5.816366 -2.458615
2012-04-27 08:14:46 51°13.706 2°55.761 17.228 0.923319 5.816366 -2.458615
2012-04-27 08:14:51 51°13.706 2°55.761 17.2862 0.941342 5.938682 -2.458615
2012-04-27 08:14:56 51°13.706 2°55.76 17.0774 0.957718 6.049909 -2.458615
2012-04-27 08:15:01 51°13.705 2°55.758 17.3069 0.962662 6.083522 -2.458615
2012-04-27 08:15:06 51°13.703 2°55.757 17.3343 0.956688 6.043019 -2.458615
2012-04-27 08:15:11 51°13.7 2°55.756 17.3527 0.950611 6.001729 -2.458615
2012-04-27 08:15:16 51°13.698 2°55.755 17.3678 0.950611 6.001729 -2.458615
2012-04-27 08:15:21 51°13.695 2°55.753 17.3924 0.945256 5.965358 -2.458615
2012-04-27 08:15:26 51°13.693 2°55.752 17.4239 0.964516 6.096243 -2.458615
2012-04-27 08:15:31 51°13.693 2°55.752 17.4372 0.984497 6.232401 -2.458615
2012-04-27 08:15:36 51°13.694 2°55.751 17.4583 0.940312 5.931802 -2.458615
2012-04-27 08:15:41 51°13.696 2°55.75 17.4479 0.911887 5.73886 -2.458615
2012-04-27 08:15:46 51°13.698 2°55.748 17.4426 0.911887 5.73886 -2.458615
2012-04-27 08:15:51 51°13.701 2°55.746 17.4214 0.907253 5.707403 -2.458615
2012-04-27 08:15:56 51°13.705 2°55.743 17.4164 0.90715 5.706602 -2.458615
2012-04-27 08:16:01 51°13.71 2°55.739 17.3368 0.905605 5.696155 -2.458615
2012-04-27 08:16:06 51°13.715 2°55.735 17.3435 0.918684 5.784659 -2.458615
2012-04-27 08:16:11 51°13.721 2°55.73 17.3307 0.916625 5.770713 -2.458615
2012-04-27 08:16:17 51°13.728 2°55.723 17.3373 0.916625 5.770713 -2.458615
2012-04-27 08:16:21 51°13.734 2°55.718 17.3056 0.908901 5.718444 -2.458615
2012-04-27 08:16:26 51°13.741 2°55.712 17.2196 0.899426 5.65428 -2.458615
2012-04-27 08:16:31 51°13.749 2°55.705 17.199 0.905399 5.694554 -2.458615
2012-04-27 08:16:36 51°13.757 2°55.698 17.1389 0.903546 5.682021 -2.458615
2012-04-27 08:16:41 51°13.765 2°55.691 17.132 0.917243 5.774791 -2.458615
2012-04-27 08:16:46 51°13.773 2°55.684 17.1205 0.917243 5.774791 -2.458615
2012-04-27 08:16:51 51°13.782 2°55.676 17.1143 0.912196 5.740741 -2.458615
2012-04-27 08:16:56 51°13.792 2°55.669 17.1116 0.913329 5.748512 -2.458615
2012-04-27 08:17:01 51°13.801 2°55.662 17.1008 0.911578 5.736665 -2.458615
2012-04-27 08:17:06 51°13.811 2°55.655 17.1031 0.922083 5.807887 -2.458615
2012-04-27 08:17:11 51°13.82 2°55.647 17.079 0.917037 5.773819 -2.458615
2012-04-27 08:17:16 51°13.83 2°55.64 17.1073 0.917037 5.773819 -2.458615
2012-04-27 08:17:21 51°13.84 2°55.634 17.1419 0.92507 5.828334 -2.458615
2012-04-27 08:17:26 51°13.849 2°55.627 17.1463 0.931146 5.869627 -2.458615
2012-04-27 08:17:31 51°13.859 2°55.62 17.2054 0.929498 5.858562 -2.458615
2012-04-27 08:17:36 51°13.868 2°55.614 17.2425 0.94196 5.943094 -2.458615
2012-04-27 08:17:41 51°13.877 2°55.608 17.2329 0.942269 5.945409 -2.458615
2012-04-27 08:17:46 51°13.887 2°55.602 17.2378 0.942269 5.945409 -2.458615
2012-04-27 08:17:51 51°13.896 2°55.596 17.2542 0.936604 5.90697 -2.458615
2012-04-27 08:17:56 51°13.905 2°55.59 17.2533 0.923937 5.821084 -2.458615
2012-04-27 08:18:01 51°13.914 2°55.583 17.2599 0.932279 5.877523 -2.458615
2012-04-27 08:18:06 51°13.924 2°55.577 17.2671 0.931455 5.872044 -2.458615
2012-04-27 08:18:11 51°13.933 2°55.571 17.2716 0.927644 5.846103 -2.458615
2012-04-27 08:18:16 51°13.943 2°55.564 17.2737 0.927644 5.846103 -2.458615
2012-04-27 08:18:21 51°13.952 2°55.558 17.2692 0.925997 5.834935 -2.458615
2012-04-27 08:18:26 51°13.962 2°55.552 17.2692 0.923937 5.820978 -2.458615
2012-04-27 08:18:31 51°13.972 2°55.545 17.2722 0.926409 5.837727 -2.458615
2012-04-27 08:18:37 51°13.984 2°55.538 17.2782 0.922392 5.810512 -2.458615
2012-04-27 08:18:41 51°13.992 2°55.532 17.2789 0.924349 5.823769 -2.458615
2012-04-27 08:18:46 51°14.002 2°55.526 17.283 0.924349 5.823769 -2.458615
2012-04-27 08:18:51 51°14.012 2°55.519 17.3157 0.924349 5.823769 -2.458615
2012-04-27 08:18:56 51°14.022 2°55.513 17.3103 0.922598 5.811907 -2.458615
2012-04-27 08:19:01 51°14.031 2°55.506 17.2964 0.922495 5.811209 -2.458615
2012-04-27 08:19:06 51°14.041 2°55.499 17.2984 0.922392 5.810512 -2.458615
2012-04-27 08:19:11 51°14.051 2°55.492 17.2961 0.922495 5.811209 -2.458615
2012-04-27 08:19:16 51°14.061 2°55.486 17.2925 0.922495 5.811209 -2.458615
2012-04-27 08:19:21 51°14.07 2°55.479 17.2871 0.920641 5.798652 -2.458615
2012-04-27 08:19:26 51°14.08 2°55.472 17.282 0.922804 5.813302 -2.458615
2012-04-27 08:19:31 51°14.089 2°55.464 17.2847 0.922598 5.811907 -2.458615
2012-04-27 08:19:36 51°14.099 2°55.457 17.292 0.922701 5.812711 -2.458615
2012-04-27 08:19:41 51°14.109 2°55.45 17.2974 0.9261 5.83574 -2.458615
2012-04-27 08:19:46 51°14.119 2°55.442 17.3049 0.9261 5.83574 -2.458615
2012-04-27 08:19:51 51°14.129 2°55.434 17.2925 0.903958 5.685742 -2.458615
2012-04-27 08:19:56 51°14.14 2°55.426 17.2974 0.932073 5.876234 -2.458615
2012-04-27 08:20:01 51°14.15 2°55.418 17.2823 0.902207 5.673904 -2.458615
2012-04-27 08:20:06 51°14.161 2°55.409 17.2241 0.91817 5.781807 -2.458615
2012-04-27 08:20:11 51°14.172 2°55.4 17.2673 0.91611 5.767966 -2.458615
2012-04-27 08:20:16 51°14.184 2°55.391 17.2613 0.91611 5.767966 -2.458615
2012-04-27 08:20:21 51°14.196 2°55.38 17.2603 0.892938 5.611168 -2.458615
2012-04-27 08:20:26 51°14.208 2°55.371 17.2962 0.925894 5.834237 -2.458615
2012-04-27 08:20:31 51°14.22 2°55.359 17.1228 0.881714 5.535393 -2.458615
2012-04-27 08:20:36 51°14.232 2°55.348 17.3224 0.918273 5.782716 -2.458615
2012-04-27 08:20:41 51°14.245 2°55.335 17.1727 0.814267 5.081759 -2.458615
2012-04-27 08:20:46 51°14.258 2°55.323 17.0269 0.814267 5.081759 -2.458615
2012-04-27 08:20:51 51°14.271 2°55.31 17.0748 0.909416 5.72266 -2.458615
2012-04-27 08:20:57 51°14.287 2°55.295 16.9632 0.906429 5.702248 -2.458615
2012-04-27 08:21:01 51°14.298 2°55.284 16.965 0.921465 5.80402 -2.458615
2012-04-27 08:21:06 51°14.312 2°55.271 17.0101 0.940209 5.931428 -2.458615
2012-04-27 08:21:11 51°14.326 2°55.257 17.0979 0.922186 5.809223 -2.458615
2012-04-27 08:21:16 51°14.341 2°55.244 17.0043 0.922186 5.809223 -2.458615
2012-04-27 08:21:21 51°14.355 2°55.229 16.9089 0.88192 5.536986 -2.458615
2012-04-27 08:21:26 51°14.369 2°55.216 16.9924 0.941136 5.937828 -2.458615
2012-04-27 08:21:31 51°14.384 2°55.201 17.0222 0.891806 5.603722 -2.458615
2012-04-27 08:21:36 51°14.399 2°55.188 17.0905 0.94402 5.957294 -2.458615
2012-04-27 08:21:41 51°14.413 2°55.174 17.0748 0.884906 5.556935 -2.458615
2012-04-27 08:21:46 51°14.428 2°55.16 16.8739 0.884906 5.556935 -2.458615
2012-04-27 08:21:51 51°14.442 2°55.146 17.0893 0.944535 5.960681 -2.458615
2012-04-27 08:21:56 51°14.457 2°55.132 17.043 0.903031 5.679475 -2.458615
2012-04-27 08:22:01 51°14.471 2°55.118 17.0477 0.935678 5.900574 -2.458615
2012-04-27 08:22:05 51°14.483 2°55.107 17.0354 0.882846 5.543138 -2.458615
2012-04-27 08:22:11 51°14.501 2°55.09 16.9825 0.951744 6.009755 -2.458615
2012-04-27 08:22:16 51°14.516 2°55.077 17.1429 0.951744 6.009755 -2.458615
2012-04-27 08:22:21 51°14.53 2°55.063 17.1882 0.917964 5.781047 -2.458615
2012-04-27 08:22:25 51°14.542 2°55.051 17.2265 0.89263 5.609697 -2.458615
2012-04-27 08:22:30 51°14.556 2°55.035 17.1564 0.830124 5.18864 -2.458615
2012-04-27 08:22:35 51°14.569 2°55.018 17.204 0.80603 5.027158 -2.458615
2012-04-27 08:22:40 51°14.582 2°54.999 17.1242 0.908386 5.716007 -2.458615
2012-04-27 08:22:45 51°14.595 2°54.981 17.2166 0.908386 5.716007 -2.458615
2012-04-27 08:22:49 51°14.605 2°54.965 17.2346 0.791306 4.928597 -2.458615
2012-04-27 08:22:54 51°14.616 2°54.944 17.2411 0.776377 4.828654 -2.458615
2012-04-27 08:22:59 51°14.626 2°54.922 17.1699 0.751359 4.661746 -2.458615
2012-04-27 08:23:04 51°14.636 2°54.899 17.2012 0.819621 5.117542 -2.458615
2012-04-27 08:23:09 51°14.644 2°54.875 17.192 0.819621 5.117636 -2.458615
2012-04-27 08:23:13 51°14.651 2°54.855 17.2022 0.819621 5.117636 -2.458615
2012-04-27 08:23:19 51°14.659 2°54.825 17.1937 0.862045 5.402631 -2.458615
2012-04-27 08:23:23 51°14.664 2°54.804 17.2205 0.875638 5.494515 -2.458615
2012-04-27 08:23:28 51°14.669 2°54.778 17.252 0.792748 4.93805 -2.458615
2012-04-27 08:23:33 51°14.673 2°54.751 17.2552 0.747859 4.638892 -2.458615
2012-04-27 08:23:37 51°14.674 2°54.73 17.2484 0.791306 4.928507 -2.458615
2012-04-27 08:23:43 51°14.675 2°54.698 17.2263 0.791306 4.928507 -2.458615
2012-04-27 08:23:48 51°14.673 2°54.671 17.2271 0.770817 4.791841 -2.458615
2012-04-27 08:23:53 51°14.671 2°54.644 17.1747 0.643476 3.949196 -2.458615
2012-04-27 08:23:57 51°14.667 2°54.623 17.1194 0.7004 4.324136 -2.458615
2012-04-27 08:24:03 51°14.662 2°54.593 17.0965 0.794189 4.947865 -2.458615
2012-04-27 08:24:08 51°14.655 2°54.568 17.0825 0.796763 4.964983 -2.458615
2012-04-27 08:24:13 51°14.648 2°54.543 17.0093 0.796763 4.964983 -2.458615
2012-04-27 08:24:17 51°14.642 2°54.524 17.1471 0.85669 5.367374 -2.458615
2012-04-27 08:24:22 51°14.634 2°54.501 16.9884 0.756404 4.695739 -2.458615
2012-04-27 08:24:28 51°14.622 2°54.475 17.0271 0.827447 5.169731 -2.458615
2012-04-27 08:24:33 51°14.611 2°54.453 16.935 0.815091 5.086905 -2.458615
2012-04-27 08:24:37 51°14.603 2°54.437 16.8688 0.827447 5.16992 -2.458615
2012-04-27 08:24:43 51°14.589 2°54.412 16.9079 0.827447 5.16992 -2.458615
2012-04-27 08:24:48 51°14.577 2°54.392 16.8781 0.929395 5.856578 -2.458615
2012-04-27 08:24:53 51°14.566 2°54.371 16.8863 0.937737 5.912384 -2.458615
2012-04-27 08:24:57 51°14.557 2°54.354 16.901 0.922804 5.810751 -2.458615
2012-04-27 08:25:03 51°14.543 2°54.329 16.8793 0.915183 5.759268 -2.458615
2012-04-27 08:25:08 51°14.531 2°54.309 16.8404 0.908592 5.715309 -2.458615
2012-04-27 08:25:13 51°14.52 2°54.289 16.8525 0.908592 5.715309 -2.458615
2012-04-27 08:25:17 51°14.51 2°54.273 16.9027 0.91817 5.780855 -2.458615
2012-04-27 08:25:23 51°14.496 2°54.248 16.817 0.884494 5.554765 -2.458615
2012-04-27 08:25:28 51°14.485 2°54.227 16.8371 0.985424 6.24146 -2.458615
2012-04-27 08:25:33 51°14.474 2°54.205 16.9532 0.93197 5.877471 -2.458615
2012-04-27 08:25:38 51°14.463 2°54.184 16.9906 0.931146 5.871023 -2.458615
2012-04-27 08:25:43 51°14.451 2°54.163 16.9293 0.931146 5.871023 -2.458615
2012-04-27 08:25:48 51°14.44 2°54.142 16.9582 0.93403 5.890474 -2.458615
2012-04-27 08:25:53 51°14.428 2°54.122 16.8985 0.90437 5.689048 -2.458615
2012-04-27 08:25:57 51°14.418 2°54.106 16.9094 0.8501 5.322355 -2.458615
2012-04-27 08:26:03 51°14.403 2°54.083 16.8344 0.98048 6.204689 -2.458615
2012-04-27 08:26:08 51°14.391 2°54.062 16.8494 0.928262 5.850292 -2.458615
2012-04-27 08:26:13 51°14.379 2°54.042 16.9034 0.928262 5.850292 -2.458615
2012-04-27 08:26:17 51°14.37 2°54.026 16.9462 0.970798 6.138879 -2.458615
2012-04-27 08:26:23 51°14.356 2°54.001 16.8869 0.929395 5.857435 -2.458615
2012-04-27 08:26:28 51°14.344 2°53.98 16.9717 0.935781 5.901596 -2.458615
2012-04-27 08:26:33 51°14.332 2°53.961 16.8851 0.902516 5.67672 -2.458615
2012-04-27 08:26:37 51°14.322 2°53.944 16.9023 0.895719 5.630363 -2.458615
2012-04-27 08:26:43 51°14.307 2°53.921 16.8232 0.895719 5.630363 -2.458615
2012-04-27 08:26:48 51°14.295 2°53.901 16.8777 0.956894 6.045304 -2.458615
2012-04-27 08:26:53 51°14.283 2°53.88 16.9178 0.9674 6.117205 -2.458615
2012-04-27 08:26:57 51°14.274 2°53.863 16.8601 0.933927 5.890315 -2.458615
2012-04-27 08:27:03 51°14.26 2°53.838 16.907 0.929704 5.861675 -2.458615
2012-04-27 08:27:08 51°14.248 2°53.818 16.8658 0.942063 5.94586 -2.458615
2012-04-27 08:27:13 51°14.236 2°53.797 16.9421 0.942063 5.94586 -2.458615
2012-04-27 08:27:18 51°14.225 2°53.776 16.917 0.975845 6.17674 -2.458615
2012-04-27 08:27:23 51°14.213 2°53.755 16.8677 0.918685 5.789319 -2.458615
2012-04-27 08:27:28 51°14.201 2°53.734 16.9272 0.965134 6.104021 -2.458615
2012-04-27 08:27:33 51°14.19 2°53.714 16.9072 0.913638 5.753761 -2.458615
2012-04-27 08:27:38 51°14.178 2°53.693 16.891 0.912299 5.744485 -2.458615
2012-04-27 08:27:43 51°14.166 2°53.673 16.9016 0.912299 5.744485 -2.458615
2012-04-27 08:27:48 51°14.154 2°53.652 16.894 0.931146 5.87242 -2.458615
2012-04-27 08:27:53 51°14.143 2°53.631 16.7954 0.903134 5.68277 -2.458615
2012-04-27 08:27:58 51°14.131 2°53.611 16.9237 0.956482 6.044716 -2.458615
2012-04-27 08:28:02 51°14.122 2°53.595 16.8851 0.917861 5.782783 -2.458615
2012-04-27 08:28:08 51°14.108 2°53.571 16.9187 0.954422 6.031483 -2.458615
2012-04-27 08:28:13 51°14.098 2°53.553 16.956 0.954422 6.031483 -2.458615
2012-04-27 08:28:18 51°14.087 2°53.535 16.9517 0.879551 5.524443 -2.458615
2012-04-27 08:28:23 51°14.077 2°53.519 16.994 0.932279 5.881397 -2.458615
2012-04-27 08:28:28 51°14.068 2°53.503 16.9688 0.930219 5.8671 -2.458615
2012-04-27 08:28:33 51°14.059 2°53.489 16.9936 0.956276 6.043758 -2.458615
2012-04-27 08:28:37 51°14.052 2°53.478 17.0121 0.924658 5.829489 -2.458615
2012-04-27 08:28:43 51°14.041 2°53.463 16.9793 0.924658 5.829489 -2.458615
2012-04-27 08:28:48 51°14.033 2°53.451 17.0179 0.922907 5.818046 -2.458615
2012-04-27 08:28:53 51°14.025 2°53.439 16.9666 0.915801 5.770626 -2.458615
2012-04-27 08:28:57 51°14.019 2°53.43 16.9763 0.933927 5.893551 -2.458615
2012-04-27 08:29:03 51°14.01 2°53.417 16.9623 0.93784 5.919904 -2.458615
2012-04-27 08:29:08 51°14.003 2°53.407 16.9669 0.921774 5.810685 -2.458615
2012-04-27 08:29:13 51°13.996 2°53.397 16.9476 0.921774 5.810685 -2.458615
2012-04-27 08:29:18 51°13.989 2°53.387 16.9972 0.917449 5.781262 -2.458615
2012-04-27 08:29:22 51°13.983 2°53.379 16.9754 0.915389 5.767729 -2.458615
2012-04-27 08:29:28 51°13.975 2°53.367 16.9601 0.9399 5.934436 -2.458615
2012-04-27 08:29:33 51°13.969 2°53.358 16.9087 0.936193 5.909474 -2.458615
2012-04-27 08:29:38 51°13.963 2°53.348 16.9755 0.912094 5.746983 -2.458615
2012-04-27 08:29:42 51°13.958 2°53.34 16.9994 0.912094 5.746983 -2.458615
2012-04-27 08:29:48 51°13.952 2°53.328 16.97 0.981716 6.220168 -2.458615
2012-04-27 08:29:53 51°13.946 2°53.317 16.9754 0.914462 5.76261 -2.458615
2012-04-27 08:29:57 51°13.942 2°53.309 16.98 0.926718 5.845811 -2.458615
2012-04-27 08:30:03 51°13.936 2°53.297 16.9878 0.899221 5.659514 -2.458615
2012-04-27 08:30:08 51°13.931 2°53.286 16.9837 0.955143 6.039151 -2.458615
2012-04-27 08:30:13 51°13.927 2°53.276 16.9623 0.955143 6.039151 -2.458615
2012-04-27 08:30:17 51°13.923 2°53.268 16.939 0.928571 5.858282 -2.458615
2012-04-27 08:30:23 51°13.918 2°53.255 16.9905 0.935678 5.906086 -2.458615
2012-04-27 08:30:28 51°13.913 2°53.245 16.937 0.919611 5.796449 -2.458615
2012-04-27 08:30:33 51°13.909 2°53.234 16.9764 0.917346 5.781305 -2.458615
2012-04-27 08:30:38 51°13.905 2°53.224 16.9523 0.925585 5.837377 -2.458615
2012-04-27 08:30:43 51°13.901 2°53.214 16.96 0.925585 5.837377 -2.458615
2012-04-27 08:30:48 51°13.898 2°53.205 16.9241 0.920435 5.802884 -2.458615
2012-04-27 08:30:53 51°13.894 2°53.196 16.9827 0.960293 6.07464 -2.458615
2012-04-27 08:30:57 51°13.891 2°53.189 16.9704 0.909313 5.729512 -2.458615
2012-04-27 08:31:03 51°13.886 2°53.178 16.9707 0.942475 5.953999 -2.458615
2012-04-27 08:31:08 51°13.883 2°53.17 16.9541 0.937429 5.91895 -2.458615
2012-04-27 08:31:13 51°13.879 2°53.162 16.9819 0.937429 5.91895 -2.458615
2012-04-27 08:31:17 51°13.876 2°53.155 16.9648 0.945153 5.971215 -2.458615
2012-04-27 08:31:23 51°13.872 2°53.146 16.9817 0.901898 5.677737 -2.458615
2012-04-27 08:31:28 51°13.869 2°53.139 16.9502 0.920023 5.799879 -2.458615
2012-04-27 08:31:33 51°13.865 2°53.132 16.9453 0.943608 5.959187 -2.458615
2012-04-27 08:31:37 51°13.862 2°53.126 16.9157 0.943608 5.958532 -2.458615
2012-04-27 08:31:43 51°13.858 2°53.118 16.9179 0.943608 5.958532 -2.458615
2012-04-27 08:31:48 51°13.855 2°53.111 16.8959 0.913123 5.751853 -2.458615
2012-04-27 08:31:53 51°13.851 2°53.104 16.9001 0.936914 5.913611 -2.458615
2012-04-27 08:31:57 51°13.848 2°53.099 16.9351 0.933927 5.894523 -2.458615
2012-04-27 08:32:02 51°13.845 2°53.092 16.91 0.934442 5.8991 -2.458615
2012-04-27 08:32:08 51°13.841 2°53.084 16.9715 0.922495 5.818769 -2.458615
2012-04-27 08:32:13 51°13.838 2°53.078 16.9424 0.922495 5.818769 -2.458615
2012-04-27 08:32:18 51°13.834 2°53.071 16.918 0.897985 5.654261 -2.458615
2012-04-27 08:32:23 51°13.831 2°53.066 16.9289 0.974816 6.176964 -2.458615
2012-04-27 08:32:28 51°13.828 2°53.059 16.9693 0.838362 5.252688 -2.458615
2012-04-27 08:32:33 51°13.825 2°53.054 16.9471 0.948552 5.995968 -2.458615
2012-04-27 08:32:38 51°13.822 2°53.048 16.9195 0.949788 6.003163 -2.458615
2012-04-27 08:32:43 51°13.819 2°53.043 16.9132 0.949788 6.003163 -2.458615
2012-04-27 08:32:48 51°13.816 2°53.038 16.9466 0.927542 5.851508 -2.458615
2012-04-27 08:32:53 51°13.814 2°53.033 16.9117 0.930631 5.872475 -2.458615
2012-04-27 08:32:57 51°13.812 2°53.029 16.9139 0.964928 6.105974 -2.458615
2012-04-27 08:33:03 51°13.809 2°53.023 16.8831 0.978317 6.198693 -2.458615
2012-04-27 08:33:08 51°13.806 2°53.019 16.9487 0.913741 5.759836 -2.458615
2012-04-27 08:33:13 51°13.804 2°53.014 16.889 0.913741 5.759836 -2.458615
2012-04-27 08:33:17 51°13.802 2°53.011 16.9392 0.940724 5.942972 -2.458615
2012-04-27 08:33:22 51°13.8 2°53.006 16.9079 0.916728 5.780294 -2.458615
2012-04-27 08:33:28 51°13.797 2°53.001 16.9194 0.935987 5.911757 -2.458615
2012-04-27 08:33:33 51°13.795 2°52.997 16.8513 0.981304 6.221235 -2.458615
2012-04-27 08:33:37 51°13.793 2°52.994 16.9243 0.888305 5.589999 -2.458615
2012-04-27 08:33:42 51°13.791 2°52.99 16.9235 0.888305 5.589999 -2.458615
2012-04-27 08:33:48 51°13.788 2°52.985 16.9495 0.976155 6.186551 -2.458615
2012-04-27 08:33:53 51°13.786 2°52.981 16.9058 0.934442 5.902128 -2.458615
2012-04-27 08:33:58 51°13.784 2°52.977 16.9375 0.94402 5.967014 -2.458615
2012-04-27 08:34:02 51°13.783 2°52.974 16.925 0.932691 5.890018 -2.458615
2012-04-27 08:34:08 51°13.781 2°52.97 16.9267 0.949376 6.004103 -2.458615
2012-04-27 08:34:13 51°13.779 2°52.966 16.9248 0.949376 6.004103 -2.458615
2012-04-27 08:34:18 51°13.777 2°52.962 16.947 0.932485 5.889591 -2.458615
2012-04-27 08:34:23 51°13.776 2°52.958 16.9197 0.922083 5.819068 -2.458615
2012-04-27 08:34:28 51°13.774 2°52.954 16.9081 0.949685 6.006646 -2.458615
2012-04-27 08:34:33 51°13.773 2°52.95 16.8642 0.972653 6.163457 -2.458615
2012-04-27 08:34:37 51°13.772 2°52.947 16.918 0.910755 5.743069 -2.458615
2012-04-27 08:34:43 51°13.77 2°52.943 16.8508 0.910755 5.743069 -2.458615
2012-04-27 08:34:48 51°13.769 2°52.939 16.9406 0.942681 5.959986 -2.458615
2012-04-27 08:34:53 51°13.768 2°52.936 16.8876 0.910343 5.740066 -2.458615
2012-04-27 08:34:58 51°13.767 2°52.932 16.9031 0.9571 6.057905 -2.458615
2012-04-27 08:35:03 51°13.766 2°52.929 16.8452 1.088744 6.960387 -2.458615
2012-04-27 08:35:08 51°13.764 2°52.925 16.8658 0.967297 6.127499 -2.458615
2012-04-27 08:35:13 51°13.764 2°52.921 16.851 0.967297 6.127499 -2.458615
2012-04-27 08:35:18 51°13.762 2°52.918 16.9147 1.003244 6.372753 -2.458615
2012-04-27 08:35:23 51°13.762 2°52.914 16.9105 0.997991 6.337293 -2.458615
2012-04-27 08:35:28 51°13.761 2°52.911 16.8927 1.003244 6.372987 -2.458615
2012-04-27 08:35:33 51°13.76 2°52.907 16.8988 0.991502 6.292591 -2.458615
2012-04-27 08:35:37 51°13.759 2°52.905 16.8994 0.986351 6.257409 -2.458615
2012-04-27 08:35:43 51°13.758 2°52.9 16.8801 0.986351 6.257409 -2.458615
2012-04-27 08:35:48 51°13.757 2°52.897 16.9251 1.029717 6.554056 -2.458615
2012-04-27 08:35:53 51°13.757 2°52.893 16.8968 0.994695 6.315107 -2.458615
2012-04-27 08:35:57 51°13.756 2°52.891 16.917 1.015398 6.45689 -2.458615
2012-04-27 08:36:03 51°13.755 2°52.887 16.908 0.98903 6.276738 -2.458615
2012-04-27 08:36:08 51°13.754 2°52.883 16.9074 0.979245 6.210253 -2.458615
2012-04-27 08:36:13 51°13.753 2°52.88 16.9341 0.979245 6.210253 -2.458615
2012-04-27 08:36:17 51°13.752 2°52.878 16.9192 1.044035 6.655111 -2.458615
2012-04-27 08:36:23 51°13.752 2°52.874 16.9067 1.000566 6.357236 -2.458615
2012-04-27 08:36:28 51°13.751 2°52.871 16.9254 1.007673 6.405055 -2.458615
2012-04-27 08:36:33 51°13.751 2°52.868 16.9028 1.003347 6.37451 -2.458615
2012-04-27 08:36:38 51°13.75 2°52.865 16.9148 1.009527 6.416452 -2.458615
2012-04-27 08:36:43 51°13.749 2°52.862 16.9356 1.009527 6.416452 -2.458615
2012-04-27 08:36:48 51°13.749 2°52.859 16.8942 0.99933 6.34645 -2.458615
2012-04-27 08:36:53 51°13.748 2°52.855 16.917 0.952877 6.02904 -2.458615
2012-04-27 08:36:57 51°13.748 2°52.853 16.9142 0.980274 6.215802 -2.458615
2012-04-27 08:37:03 51°13.747 2°52.848 16.9231 0.992738 6.301268 -2.458615
2012-04-27 08:37:08 51°13.746 2°52.844 16.9265 1.028892 6.549247 -2.458615
2012-04-27 08:37:13 51°13.746 2°52.839 16.9293 1.028892 6.549247 -2.458615
2012-04-27 08:37:17 51°13.745 2°52.835 16.93 0.993459 6.307353 -2.458615
2012-04-27 08:37:23 51°13.744 2°52.829 16.893 0.982335 6.231579 -2.458615
2012-04-27 08:37:28 51°13.744 2°52.823 16.913 0.977082 6.195716 -2.458615
2012-04-27 08:37:33 51°13.744 2°52.817 16.923 0.984086 6.243767 -2.458615
2012-04-27 08:37:37 51°13.744 2°52.812 16.8893 1.004789 6.385315 -2.458615
2012-04-27 08:37:43 51°13.744 2°52.804 16.8943 1.004789 6.385315 -2.458615
2012-04-27 08:37:48 51°13.744 2°52.798 16.874 0.953598 6.035498 -2.458615
2012-04-27 08:37:53 51°13.745 2°52.791 16.903 0.962147 6.093963 -2.458615
2012-04-27 08:37:57 51°13.746 2°52.786 16.8965 0.969048 6.141014 -2.458615
2012-04-27 08:38:02 51°13.747 2°52.779 16.8985 0.948243 5.999145 -2.458615
2012-04-27 08:38:08 51°13.749 2°52.772 16.8919 0.965855 6.118679 -2.458615
2012-04-27 08:38:13 51°13.751 2°52.765 16.8939 0.965855 6.118679 -2.458615
2012-04-27 08:38:17 51°13.753 2°52.76 16.8704 0.952774 6.029445 -2.458615
2012-04-27 08:38:23 51°13.756 2°52.752 16.8835 0.974301 6.175944 -2.458615
2012-04-27 08:38:28 51°13.759 2°52.747 16.9029 0.973786 6.172656 -2.458615
2012-04-27 08:38:33 51°13.762 2°52.742 16.9278 0.954628 6.04218 -2.458615
2012-04-27 08:38:37 51°13.765 2°52.738 16.9172 0.950303 6.012395 -2.458615
2012-04-27 08:38:43 51°13.769 2°52.732 16.9349 0.950303 6.012395 -2.458615
2012-04-27 08:38:48 51°13.773 2°52.728 16.8919 0.950509 6.013908 -2.458615
2012-04-27 08:38:53 51°13.777 2°52.724 16.8785 0.959366 6.074119 -2.458615
2012-04-27 08:38:58 51°13.781 2°52.721 16.9061 0.954731 6.042771 -2.458615
2012-04-27 08:39:02 51°13.785 2°52.718 16.91 0.953289 6.032951 -2.458615
2012-04-27 08:39:08 51°13.79 2°52.714 16.8813 0.949891 6.00948 -2.458615
2012-04-27 08:39:13 51°13.794 2°52.712 16.8578 0.949891 6.00948 -2.458615
2012-04-27 08:39:18 51°13.799 2°52.708 16.8723 1.070304 6.834249 -2.458615
2012-04-27 08:39:23 51°13.804 2°52.707 16.8868 1.104095 7.070299 -2.458615
2012-04-27 08:39:28 51°13.809 2°52.705 16.8813 1.121094 7.186999 -2.458615
2012-04-27 08:39:33 51°13.814 2°52.703 16.9047 1.046404 6.671999 -2.458615
2012-04-27 08:39:37 51°13.818 2°52.701 16.8806 1.181884 7.60946 -2.458615
2012-04-27 08:39:43 51°13.824 2°52.699 16.9261 1.181884 7.60946 -2.458615
2012-04-27 08:39:48 51°13.828 2°52.696 16.9431 1.042902 6.648427 -2.458615
2012-04-27 08:39:53 51°13.834 2°52.692 16.9911 1.064226 6.795543 -2.458615
2012-04-27 08:39:57 51°13.838 2°52.688 16.9589 1.029305 6.55484 -2.458615
2012-04-27 08:40:03 51°13.844 2°52.681 17.0044 1.004892 6.387192 -2.458615
2012-04-27 08:40:08 51°13.848 2°52.674 16.9721 1.018901 6.48326 -2.458615
2012-04-27 08:40:13 51°13.852 2°52.665 16.9564 1.018901 6.48326 -2.458615
2012-04-27 08:40:18 51°13.855 2°52.655 16.9615 1.002317 6.369568 -2.458615
2012-04-27 08:40:22 51°13.856 2°52.646 16.9633 1.045889 6.66895 -2.458615
2012-04-27 08:40:28 51°13.858 2°52.633 16.9689 1.008497 6.412579 -2.458615
2012-04-27 08:40:33 51°13.859 2°52.622 16.9803 0.994901 6.318951 -2.458615
2012-04-27 08:40:38 51°13.859 2°52.61 16.9243 1.012617 6.439853 -2.458615
2012-04-27 08:40:42 51°13.859 2°52.601 16.9539 1.012617 6.439853 -2.458615
2012-04-27 08:40:48 51°13.857 2°52.588 16.948 1.016223 6.464195 -2.458615
2012-04-27 08:40:53 51°13.855 2°52.577 16.9517 1.0223 6.505486 -2.458615
2012-04-27 08:40:57 51°13.853 2°52.569 16.9266 1.032086 6.572234 -2.458615
2012-04-27 08:41:03 51°13.848 2°52.557 16.9126 1.012514 6.437847 -2.458615
2012-04-27 08:41:08 51°13.844 2°52.548 16.9489 1.036103 6.599921 -2.458615
2012-04-27 08:41:13 51°13.84 2°52.54 16.9288 1.036103 6.599921 -2.458615
2012-04-27 08:41:17 51°13.836 2°52.534 16.8822 1.061754 6.777408 -2.458615
2012-04-27 08:41:23 51°13.83 2°52.527 16.9016 1.05207 6.710444 -2.458615
2012-04-27 08:41:28 51°13.824 2°52.521 16.8969 1.055779 6.735569 -2.458615
2012-04-27 08:41:33 51°13.819 2°52.518 16.8983 1.057942 6.750568 -2.458615
2012-04-27 08:41:38 51°13.813 2°52.515 16.9144 1.098738 7.032533 -2.458615
2012-04-27 08:41:43 51°13.808 2°52.513 16.8926 1.098738 7.032533 -2.458615
2012-04-27 08:41:48 51°13.803 2°52.511 16.8901 1.646298 10.894211 -2.458615
2012-04-27 08:41:53 51°13.798 2°52.511 16.8945 1.320493 8.579118 -2.458615
2012-04-27 08:41:57 51°13.794 2°52.511 16.8932 1.294211 8.389964 -2.458615
2012-04-27 08:42:03 51°13.789 2°52.512 16.8844 1.15767 7.435151 -2.458615
2012-04-27 08:42:08 51°13.785 2°52.514 16.8651 1.224442 7.898847 -2.458615
2012-04-27 08:42:13 51°13.781 2°52.516 16.7871 1.224442 7.898847 -2.458615
2012-04-27 08:42:17 51°13.777 2°52.518 16.7933 1.191673 7.671334 -2.458615
2012-04-27 08:42:23 51°13.773 2°52.521 16.8685 1.49667 9.822679 -2.458615
2012-04-27 08:42:28 51°13.769 2°52.524 16.8637 1.319875 8.576823 -2.458615
2012-04-27 08:42:33 51°13.766 2°52.527 16.8615 1.824035 12.184189 -2.458615
2012-04-27 08:42:37 51°13.763 2°52.528 16.8753 1.077927 6.891929 -2.458615
2012-04-27 08:42:43 51°13.759 2°52.532 16.8441 1.077927 6.891929 -2.458615
2012-04-27 08:42:48 51°13.756 2°52.534 16.8946 1.123361 7.205588 -2.458615
2012-04-27 08:42:53 51°13.753 2°52.537 16.8449 1.088435 6.963627 -2.458615
2012-04-27 08:42:57 51°13.75 2°52.539 16.8954 1.097707 7.027487 -2.458615
2012-04-27 08:43:02 51°13.748 2°52.541 16.8815 1.144173 7.349598 -2.458615
2012-04-27 08:43:08 51°13.744 2°52.544 16.8511 1.110895 7.120023 -2.458615
2012-04-27 08:43:13 51°13.742 2°52.546 16.8241 1.110895 7.120023 -2.458615
2012-04-27 08:43:18 51°13.739 2°52.548 16.8752 1.151076 7.398825 -2.458615
2012-04-27 08:43:23 51°13.737 2°52.55 16.8907 1.115119 7.150544 -2.458615
2012-04-27 08:43:28 51°13.734 2°52.552 16.8958 1.138609 7.312653 -2.458615
2012-04-27 08:43:33 51°13.732 2°52.554 16.8382 1.09812 7.032659 -2.458615
2012-04-27 08:43:37 51°13.731 2°52.555 16.868 1.15087 7.39726 -2.458615
2012-04-27 08:43:43 51°13.728 2°52.557 16.8936 1.15087 7.39726 -2.458615
2012-04-27 08:43:48 51°13.726 2°52.559 16.9003 1.122331 7.199253 -2.458615
2012-04-27 08:43:53 51°13.725 2°52.56 16.882 1.152004 7.405531 -2.458615
2012-04-27 08:43:57 51°13.723 2°52.562 16.9023 1.110586 7.118933 -2.458615
2012-04-27 08:44:03 51°13.721 2°52.563 16.8859 1.085242 6.944661 -2.458615
2012-04-27 08:44:08 51°13.72 2°52.565 16.874 1.089672 6.975617 -2.458615
2012-04-27 08:44:13 51°13.718 2°52.566 16.8728 1.089672 6.975617 -2.458615
2012-04-27 08:44:17 51°13.717 2°52.567 16.8931 1.096471 7.024116 -2.458615
2012-04-27 08:44:23 51°13.716 2°52.569 16.8901 1.110792 7.124812 -2.458615
2012-04-27 08:44:28 51°13.714 2°52.57 16.8827 1.154064 7.424745 -2.458615
2012-04-27 08:44:33 51°13.713 2°52.571 16.8694 1.228976 7.947387 -2.458615
2012-04-27 08:44:37 51°13.712 2°52.572 16.9187 1.127997 7.24527 -2.458615
2012-04-27 08:44:42 51°13.711 2°52.573 16.9063 1.127997 7.24527 -2.458615
2012-04-27 08:44:48 51°13.709 2°52.574 16.9024 1.154889 7.429511 -2.458615
2012-04-27 08:44:53 51°13.708 2°52.575 16.9007 1.107804 7.101138 -2.458615
2012-04-27 08:44:58 51°13.707 2°52.576 16.9037 1.11038 7.11777 -2.458615
2012-04-27 08:45:02 51°13.707 2°52.577 16.919 1.083593 6.93176 -2.458615
2012-04-27 08:45:08 51°13.705 2°52.577 16.886 1.079885 6.90593 -2.458615
2012-04-27 08:45:13 51°13.704 2°52.578 16.8839 1.079885 6.90593 -2.458615
2012-04-27 08:45:17 51°13.704 2°52.578 16.9036 1.062269 6.78494 -2.458615
2012-04-27 08:45:23 51°13.703 2°52.579 16.9132 1.050834 6.706382 -2.458615
2012-04-27 08:45:28 51°13.701 2°52.58 16.8799 1.065359 6.808346 -2.458615
2012-04-27 08:45:33 51°13.701 2°52.58 16.8954 1.336057 8.698323 -2.458615
2012-04-27 08:45:37 51°13.7 2°52.581 16.9175 1.084727 6.947111 -2.458615
2012-04-27 08:45:43 51°13.699 2°52.581 16.9163 1.084727 6.947111 -2.458615
2012-04-27 08:45:48 51°13.698 2°52.581 16.9208 1.145513 7.367689 -2.458615
2012-04-27 08:45:53 51°13.697 2°52.582 16.8949 1.123773 7.216932 -2.458615
2012-04-27 08:45:58 51°13.696 2°52.582 16.872 1.122537 7.207305 -2.458615
2012-04-27 08:46:03 51°13.696 2°52.582 16.8782 1.122846 7.208783 -2.458615
2012-04-27 08:46:08 51°13.695 2°52.583 16.8935 1.092659 6.998688 -2.458615
2012-04-27 08:46:13 51°13.694 2°52.583 16.9265 1.092659 6.998688 -2.458615
2012-04-27 08:46:18 51°13.694 2°52.583 16.9086 1.26587 8.202204 -2.458615
2012-04-27 08:46:23 51°13.693 2°52.583 16.8885 1.069068 6.834903 -2.458615
2012-04-27 08:46:28 51°13.693 2°52.583 16.87 1.203111 7.765002 -2.458615
2012-04-27 08:46:33 51°13.692 2°52.584 16.8763 1.124597 7.221712 -2.458615
2012-04-27 08:46:37 51°13.692 2°52.584 16.8763 1.079267 6.909543 -2.458615
2012-04-27 08:46:43 51°13.691 2°52.584 16.8903 1.079267 6.909543 -2.458615
2012-04-27 08:46:48 51°13.691 2°52.584 16.9108 1.068553 6.83676 -2.458615
2012-04-27 08:46:53 51°13.69 2°52.584 16.9203 1.085654 6.954922 -2.458615
2012-04-27 08:46:57 51°13.69 2°52.584 16.9063 1.084521 6.946328 -2.458615
2012-04-27 08:47:03 51°13.69 2°52.584 16.8846 1.077206 6.895577 -2.458615
2012-04-27 08:47:08 51°13.689 2°52.585 16.9113 1.184358 7.638872 -2.458615
2012-04-27 08:47:13 51°13.689 2°52.585 16.913 1.184358 7.638872 -2.458615
2012-04-27 08:47:18 51°13.689 2°52.585 16.9091 1.099665 7.053189 -2.458615
2012-04-27 08:47:22 51°13.689 2°52.585 16.9238 1.081327 6.924658 -2.458615
2012-04-27 08:47:28 51°13.689 2°52.585 16.9264 1.083285 6.937152 -2.458615
2012-04-27 08:47:33 51°13.688 2°52.585 16.9272 1.041254 6.647363 -2.458615
2012-04-27 08:47:38 51°13.688 2°52.586 16.923 1.147883 7.386315 -2.458615
2012-04-27 08:47:43 51°13.688 2°52.585 16.9247 1.147883 7.386315 -2.458615
2012-04-27 08:47:48 51°13.688 2°52.586 16.8781 1.133355 7.286564 -2.458615
2012-04-27 08:47:53 51°13.687 2°52.585 16.8838 1.125113 7.229939 -2.458615
2012-04-27 08:47:57 51°13.687 2°52.585 16.9077 1.104301 7.083047 -2.458615
2012-04-27 08:48:03 51°13.686 2°52.585 16.91 1.106259 7.097635 -2.458615
2012-04-27 08:48:08 51°13.686 2°52.585 16.9134 1.088127 6.970591 -2.458615
2012-04-27 08:48:13 51°13.686 2°52.585 16.926 1.088127 6.970591 -2.458615
2012-04-27 08:48:17 51°13.686 2°52.585 16.9001 1.124494 7.221264 -2.458615
2012-04-27 08:48:23 51°13.686 2°52.584 16.9118 1.056294 6.750393 -2.458615
2012-04-27 08:48:28 51°13.685 2°52.584 16.9095 1.11244 7.139239 -2.458615
2012-04-27 08:48:33 51°13.685 2°52.584 16.8869 1.111204 7.131863 -2.458615
2012-04-27 08:48:37 51°13.685 2°52.584 16.9205 1.124082 7.221333 -2.458615
2012-04-27 08:48:43 51°13.684 2°52.583 16.9248 1.124082 7.221333 -2.458615
2012-04-27 08:48:48 51°13.684 2°52.583 16.9274 1.097605 7.039197 -2.458615
2012-04-27 08:48:53 51°13.684 2°52.583 16.9308 1.072468 6.865281 -2.458615
2012-04-27 08:48:58 51°13.684 2°52.583 16.9122 1.063402 6.80237 -2.458615
2012-04-27 08:49:03 51°13.684 2°52.582 16.9254 1.089775 6.985836 -2.458615
2012-04-27 08:49:08 51°13.684 2°52.582 16.9085 1.055676 6.750857 -2.458615
2012-04-27 08:49:13 51°13.684 2°52.582 16.9028 1.055676 6.750857 -2.458615
2012-04-27 08:49:17 51°13.684 2°52.581 16.9309 1.036413 6.618329 -2.458615
2012-04-27 08:49:23 51°13.684 2°52.581 16.9398 1.181988 7.626723 -2.458615
2012-04-27 08:49:28 51°13.683 2°52.581 16.9126 1.117901 7.181411 -2.458615
2012-04-27 08:49:33 51°13.683 2°52.581 16.9332 1.145616 7.375058 -2.458615
2012-04-27 08:49:37 51°13.683 2°52.58 16.9427 1.334924 8.699472 -2.458615
2012-04-27 08:49:43 51°13.683 2°52.58 16.9362 1.334924 8.699472 -2.458615
2012-04-27 08:49:48 51°13.683 2°52.58 16.8896 1.138404 7.324157 -2.458615
2012-04-27 08:49:53 51°13.683 2°52.58 16.9073 1.219496 7.889309 -2.458615
2012-04-27 08:49:57 51°13.683 2°52.579 16.9083 1.131295 7.276426 -2.458615
2012-04-27 08:50:03 51°13.683 2°52.579 16.9038 1.234541 7.996437 -2.458615
2012-04-27 08:50:08 51°13.683 2°52.579 16.9263 1.115943 7.170621 -2.458615
2012-04-27 08:50:13 51°13.683 2°52.578 16.9338 1.115943 7.170621 -2.458615
2012-04-27 08:50:18 51°13.683 2°52.578 16.9258 1.145822 7.374723 -2.458615
2012-04-27 08:50:23 51°13.683 2°52.578 16.9217 1.061445 6.787876 -2.458615
2012-04-27 08:50:28 51°13.683 2°52.577 16.9426 1.068862 6.838136 -2.458615
2012-04-27 08:50:33 51°13.683 2°52.577 16.9309 1.190437 7.682778 -2.458615
2012-04-27 08:50:38 51°13.683 2°52.577 16.9173 1.187449 7.664355 -2.458615
2012-04-27 08:50:44 51°13.684 2°52.576 16.9182 1.187449 7.664355 -2.458615
2012-04-27 08:50:49 51°13.684 2°52.576 16.9363 1.079679 6.915825 -2.458615
2012-04-27 08:50:54 51°13.684 2°52.575 16.9298 1.079473 6.914275 -2.458615
2012-04-27 08:50:59 51°13.683 2°52.575 16.936 1.068141 6.835932 -2.458615
2012-04-27 08:51:04 51°13.684 2°52.574 16.9306 1.066184 6.822681 -2.458615
2012-04-27 08:51:09 51°13.684 2°52.574 16.9261 1.084727 6.950822 -2.458615
2012-04-27 08:51:13 51°13.684 2°52.574 16.9346 1.084727 6.950822 -2.458615
2012-04-27 08:51:18 51°13.684 2°52.573 16.9332 1.057427 6.762056 -2.458615
2012-04-27 08:51:23 51°13.684 2°52.573 16.9302 1.054028 6.738257 -2.458615
2012-04-27 08:51:28 51°13.684 2°52.572 16.9268 1.092144 7.002087 -2.458615
2012-04-27 08:51:33 51°13.684 2°52.572 16.9395 1.07937 6.914709 -2.458615
2012-04-27 08:51:37 51°13.684 2°52.571 16.9494 1.067008 6.830505 -2.458615
2012-04-27 08:51:43 51°13.684 2°52.571 16.951 1.067008 6.830505 -2.458615
2012-04-27 08:51:48 51°13.684 2°52.57 16.9227 1.112337 7.145104 -2.458615
2012-04-27 08:51:53 51°13.684 2°52.569 16.9104 1.02982 6.577466 -2.458615
2012-04-27 08:51:58 51°13.684 2°52.569 16.9443 1.09812 7.050682 -2.458615
2012-04-27 08:52:02 51°13.684 2°52.569 16.933 1.069068 6.849267 -2.458615
2012-04-27 08:52:08 51°13.684 2°52.568 16.9488 1.173848 7.577013 -2.458615
2012-04-27 08:52:13 51°13.684 2°52.567 16.9565 1.173848 7.577013 -2.458615
2012-04-27 08:52:17 51°13.684 2°52.567 16.9456 1.113574 7.1571 -2.458615
2012-04-27 08:52:23 51°13.684 2°52.566 16.9554 1.139434 7.336448 -2.458615
2012-04-27 08:52:28 51°13.684 2°52.566 16.9154 1.133973 7.297978 -2.458615
2012-04-27 08:52:33 51°13.684 2°52.565 16.9532 1.110895 7.135637 -2.458615
2012-04-27 08:52:38 51°13.684 2°52.565 16.9232 1.081533 6.930164 -2.458615
2012-04-27 08:52:43 51°13.684 2°52.564 16.932 1.081533 6.930164 -2.458615
2012-04-27 08:52:48 51°13.684 2°52.563 16.8994 1.058972 6.772208 -2.458615
2012-04-27 08:52:53 51°13.684 2°52.563 16.9234 1.078855 6.908225 -2.458615
2012-04-27 08:52:58 51°13.684 2°52.562 16.9089 1.216508 7.863933 -2.458615
2012-04-27 08:53:03 51°13.684 2°52.562 16.914 1.115428 7.162826 -2.458615
2012-04-27 08:53:08 51°13.684 2°52.561 16.9055 1.157053 7.453178 -2.458615
2012-04-27 08:53:13 51°13.684 2°52.56 16.9395 1.157053 7.453178 -2.458615
2012-04-27 08:53:17 51°13.684 2°52.56 16.936 1.072674 6.870752 -2.458615
2012-04-27 08:53:23 51°13.684 2°52.559 16.9287 1.06536 6.821645 -2.458615
2012-04-27 08:53:28 51°13.685 2°52.559 16.9293 1.168078 7.538063 -2.458615
2012-04-27 08:53:33 51°13.685 2°52.558 16.9058 1.089569 6.993172 -2.458615
2012-04-27 08:53:37 51°13.685 2°52.558 16.9178 1.064535 6.817968 -2.458615
2012-04-27 08:53:43 51°13.685 2°52.557 16.9288 1.064535 6.817968 -2.458615
2012-04-27 08:53:48 51°13.685 2°52.556 16.9212 1.069171 6.849852 -2.458615
2012-04-27 08:53:53 51°13.686 2°52.556 16.9314 1.111616 7.142608 -2.458615
2012-04-27 08:53:58 51°13.686 2°52.555 16.9428 1.132634 7.286931 -2.458615
2012-04-27 08:54:02 51°13.686 2°52.554 16.9495 1.087612 6.975251 -2.458615
2012-04-27 08:54:08 51°13.686 2°52.554 16.9381 1.098326 7.048989 -2.458615
2012-04-27 08:54:13 51°13.686 2°52.553 16.9525 1.098326 7.048989 -2.458615
2012-04-27 08:54:17 51°13.686 2°52.552 16.9557 1.129131 7.262082 -2.458615
2012-04-27 08:54:23 51°13.686 2°52.552 16.9507 1.209913 7.825677 -2.458615
2012-04-27 08:54:28 51°13.686 2°52.551 16.9533 1.075043 6.889146 -2.458615
2012-04-27 08:54:33 51°13.686 2°52.55 16.9469 1.078752 6.915409 -2.458615
2012-04-27 08:54:38 51°13.687 2°52.55 16.9199 1.078649 6.914824 -2.458615
2012-04-27 08:54:43 51°13.687 2°52.549 16.9025 1.078649 6.914824 -2.458615
2012-04-27 08:54:48 51°13.687 2°52.548 16.9239 1.052586 6.734895 -2.458615
2012-04-27 08:54:53 51°13.687 2°52.548 16.9454 1.143143 7.361001 -2.458615
2012-04-27 08:54:58 51°13.687 2°52.547 16.9282 1.08143 6.932645 -2.458615
2012-04-27 08:55:03 51°13.687 2°52.546 16.9316 1.146337 7.383063 -2.458615
2012-04-27 08:55:08 51°13.687 2°52.546 16.9089 1.15901 7.472299 -2.458615
2012-04-27 08:55:13 51°13.687 2°52.545 16.9276 1.15901 7.472299 -2.458615
2012-04-27 08:55:17 51°13.687 2°52.544 16.8958 1.07288 6.876356 -2.458615
2012-04-27 08:55:23 51°13.687 2°52.544 16.9121 1.311939 8.5448 -2.458615
2012-04-27 08:55:28 51°13.687 2°52.543 16.9297 1.140567 7.346627 -2.458615
2012-04-27 08:55:33 51°13.687 2°52.542 16.9222 1.137683 7.326036 -2.458615
2012-04-27 08:55:37 51°13.687 2°52.542 16.9122 1.082667 6.943878 -2.458615
2012-04-27 08:55:43 51°13.688 2°52.541 16.9517 1.082667 6.943878 -2.458615
2012-04-27 08:55:48 51°13.688 2°52.541 16.9547 1.194765 7.721908 -2.458615
2012-04-27 08:55:53 51°13.688 2°52.54 16.9241 1.140876 7.3462 -2.458615
2012-04-27 08:55:57 51°13.688 2°52.54 16.9482 1.086581 6.969155 -2.458615
2012-04-27 08:56:03 51°13.688 2°52.539 16.912 1.10018 7.062607 -2.458615
2012-04-27 08:56:08 51°13.688 2°52.539 16.941 1.032395 6.593851 -2.458615
2012-04-27 08:56:13 51°13.689 2°52.538 16.9184 1.032395 6.593851 -2.458615
2012-04-27 08:56:17 51°13.689 2°52.538 16.9039 1.082873 6.942103 -2.458615
2012-04-27 08:56:22 51°13.689 2°52.537 16.9246 1.166944 7.524891 -2.458615
2012-04-27 08:56:28 51°13.689 2°52.536 16.9584 1.173848 7.575196 -2.458615
2012-04-27 08:56:33 51°13.689 2°52.536 16.967 1.088642 6.983535 -2.458615
2012-04-27 08:56:37 51°13.689 2°52.535 16.9637 1.167769 7.532852 -2.458615
2012-04-27 08:56:43 51°13.689 2°52.534 16.9661 1.167769 7.532852 -2.458615
2012-04-27 08:56:48 51°13.689 2°52.534 16.945 1.159938 7.477649 -2.458615
2012-04-27 08:56:53 51°13.689 2°52.533 16.9153 1.154271 7.438225 -2.458615
2012-04-27 08:56:58 51°13.689 2°52.533 16.9169 1.350488 8.813829 -2.458615
2012-04-27 08:57:03 51°13.689 2°52.532 16.9478 1.140258 7.341904 -2.458615
2012-04-27 08:57:08 51°13.689 2°52.532 16.9353 1.127173 7.250637 -2.458615
2012-04-27 08:57:13 51°13.689 2°52.531 16.9353 1.127173 7.250637 -2.458615
2012-04-27 08:57:18 51°13.689 2°52.53 16.9612 1.205585 7.797603 -2.458615
2012-04-27 08:57:23 51°13.689 2°52.53 16.9564 1.092557 7.012429 -2.458615
2012-04-27 08:57:28 51°13.69 2°52.529 16.9729 1.093175 7.016707 -2.458615
2012-04-27 08:57:33 51°13.69 2°52.528 16.938 1.292048 8.405239 -2.458615
2012-04-27 08:57:37 51°13.69 2°52.528 16.9666 1.144586 7.379873 -2.458615
2012-04-27 08:57:43 51°13.69 2°52.527 16.9593 1.144586 7.379873 -2.458615
2012-04-27 08:57:48 51°13.69 2°52.526 16.9755 1.184152 7.656338 -2.458615
2012-04-27 08:57:53 51°13.69 2°52.526 16.956 1.119137 7.202589 -2.458615
2012-04-27 08:57:57 51°13.69 2°52.525 16.9684 1.091321 7.008138 -2.458615
2012-04-27 08:58:03 51°13.69 2°52.524 16.9619 1.072159 6.874417 -2.458615
2012-04-27 08:58:08 51°13.69 2°52.523 16.9746 1.109453 7.132481 -2.458615
2012-04-27 08:58:13 51°13.69 2°52.522 16.9803 1.109453 7.132481 -2.458615
2012-04-27 08:58:18 51°13.69 2°52.522 16.9655 1.141289 7.354626 -2.458615
2012-04-27 08:58:22 51°13.69 2°52.521 16.9615 1.089569 6.99627 -2.458615
2012-04-27 08:58:28 51°13.69 2°52.52 16.963 1.084933 6.96392 -2.458615
2012-04-27 08:58:33 51°13.69 2°52.519 16.9766 1.072674 6.8795 -2.458615
2012-04-27 08:58:37 51°13.691 2°52.519 16.9663 1.109556 7.137147 -2.458615
2012-04-27 08:58:43 51°13.691 2°52.518 16.9588 1.109556 7.137147 -2.458615
2012-04-27 08:58:48 51°13.691 2°52.517 16.9559 1.052483 6.741145 -2.458615
2012-04-27 08:58:53 51°13.691 2°52.516 16.9368 1.142731 7.366697 -2.458615
2012-04-27 08:58:58 51°13.691 2°52.516 16.9657 1.158805 7.4779 -2.458615
2012-04-27 08:59:03 51°13.691 2°52.515 16.9526 1.10049 7.070613 -2.458615
2012-04-27 08:59:08 51°13.691 2°52.514 16.9501 1.191262 7.70101 -2.458615
2012-04-27 08:59:13 51°13.691 2°52.513 16.9655 1.191262 7.70101 -2.458615
2012-04-27 08:59:18 51°13.691 2°52.513 16.9702 1.097811 7.050493 -2.458615
2012-04-27 08:59:23 51°13.691 2°52.512 16.9752 1.075867 6.897892 -2.458615
2012-04-27 08:59:28 51°13.691 2°52.511 16.9822 1.056809 6.76652 -2.458615
2012-04-27 08:59:33 51°13.691 2°52.511 16.985 1.084727 6.960182 -2.458615
2012-04-27 08:59:38 51°13.691 2°52.51 16.9713 1.083697 6.955493 -2.458615
2012-04-27 08:59:43 51°13.691 2°52.509 16.9671 1.083697 6.955493 -2.458615
2012-04-27 08:59:48 51°13.691 2°52.509 16.9638 1.06299 6.812326 -2.458615
2012-04-27 08:59:53 51°13.691 2°52.508 16.9447 1.095957 7.040118 -2.458615
2012-04-27 08:59:57 51°13.691 2°52.508 16.9754 1.090496 7.002819 -2.458615
2012-04-27 09:00:03 51°13.691 2°52.507 16.9814 1.071232 6.869276 -2.458615
2012-04-27 09:00:08 51°13.691 2°52.506 16.9717 1.045375 6.689997 -2.458615
2012-04-27 09:00:13 51°13.691 2°52.506 16.9853 1.045375 6.689997 -2.458615
2012-04-27 09:00:18 51°13.691 2°52.505 16.9644 1.106465 7.113079 -2.458615
2012-04-27 09:00:23 51°13.691 2°52.505 16.9369 1.14644 7.391277 -2.458615
2012-04-27 09:00:28 51°13.691 2°52.504 16.9591 1.243713 8.070774 -2.458615
2012-04-27 09:00:33 51°13.691 2°52.504 16.9924 1.139743 7.343879 -2.458615
2012-04-27 09:00:37 51°13.692 2°52.503 16.9855 1.111204 7.143572 -2.458615
2012-04-27 09:00:43 51°13.692 2°52.503 16.9774 1.111204 7.143572 -2.458615
2012-04-27 09:00:48 51°13.692 2°52.502 16.9743 1.145822 7.38275 -2.458615
2012-04-27 09:00:53 51°13.692 2°52.502 16.9766 1.098944 7.05652 -2.458615
2012-04-27 09:00:58 51°13.692 2°52.501 16.985 1.081224 6.934161 -2.458615
2012-04-27 09:01:02 51°13.692 2°52.501 16.9622 1.06639 6.832408 -2.458615
2012-04-27 09:01:08 51°13.692 2°52.5 16.9659 1.058458 6.778645 -2.458615
2012-04-27 09:01:13 51°13.692 2°52.5 16.9908 1.058458 6.778645 -2.458615
2012-04-27 09:01:17 51°13.692 2°52.5 16.9703 1.184358 7.654665 -2.458615
2012-04-27 09:01:23 51°13.692 2°52.499 16.9456 1.062372 6.808433 -2.458615
2012-04-27 09:01:28 51°13.692 2°52.498 16.9776 1.111307 7.147188 -2.458615
2012-04-27 09:01:33 51°13.692 2°52.498 16.9949 1.091011 7.004964 -2.458615
2012-04-27 09:01:38 51°13.692 2°52.497 16.9896 1.103889 7.093389 -2.458615
2012-04-27 09:01:43 51°13.691 2°52.497 16.9726 1.103889 7.093389 -2.458615
2012-04-27 09:01:48 51°13.691 2°52.496 16.9893 1.070614 6.862723 -2.458615
2012-04-27 09:01:53 51°13.691 2°52.495 16.9905 1.06299 6.810189 -2.458615
2012-04-27 09:01:58 51°13.691 2°52.495 16.9784 1.080503 6.931476 -2.458615
2012-04-27 09:02:03 51°13.691 2°52.494 16.9948 1.101417 7.077561 -2.458615
2012-04-27 09:02:08 51°13.691 2°52.494 17.0003 1.091424 7.008334 -2.458615
2012-04-27 09:02:13 51°13.691 2°52.493 16.9832 1.091424 7.008334 -2.458615
2012-04-27 09:02:17 51°13.691 2°52.492 16.9731 1.08483 6.962693 -2.458615
2012-04-27 09:02:23 51°13.691 2°52.492 16.9891 1.038267 6.641486 -2.458615
2012-04-27 09:02:28 51°13.691 2°52.491 16.9984 1.045272 6.690398 -2.458615
2012-04-27 09:02:33 51°13.691 2°52.49 16.9944 1.04898 6.715856 -2.458615
2012-04-27 09:02:37 51°13.691 2°52.49 16.9641 1.041048 6.661396 -2.458615
2012-04-27 09:02:43 51°13.691 2°52.489 16.9752 1.041048 6.661396 -2.458615
2012-04-27 09:02:48 51°13.691 2°52.489 16.9914 1.116046 7.179807 -2.458615
2012-04-27 09:02:53 51°13.691 2°52.488 16.9869 1.082667 6.94939 -2.458615
2012-04-27 09:02:57 51°13.691 2°52.488 17.0055 1.369248 8.957661 -2.458615
2012-04-27 09:03:03 51°13.691 2°52.487 16.9896 1.069789 6.8607 -2.458615
2012-04-27 09:03:08 51°13.691 2°52.487 17.0034 1.086891 6.978112 -2.458615
2012-04-27 09:03:13 51°13.691 2°52.486 16.9936 1.086891 6.978112 -2.458615
2012-04-27 09:03:18 51°13.691 2°52.486 16.9911 1.145101 7.381821 -2.458615
2012-04-27 09:03:22 51°13.691 2°52.485 16.9857 1.088848 6.991664 -2.458615
2012-04-27 09:03:28 51°13.691 2°52.485 16.9801 1.061033 6.799058 -2.458615
2012-04-27 09:03:33 51°13.691 2°52.484 16.9738 1.135519 7.315998 -2.458615
2012-04-27 09:03:38 51°13.691 2°52.483 16.9901 1.035486 6.623664 -2.458615
2012-04-27 09:03:43 51°13.69 2°52.483 16.9605 1.035486 6.623664 -2.458615
2012-04-27 09:03:48 51°13.69 2°52.482 16.9703 1.039606 6.651699 -2.458615
2012-04-27 09:03:53 51°13.69 2°52.482 16.9773 1.07731 6.911431 -2.458615
2012-04-27 09:03:58 51°13.69 2°52.481 16.9917 1.081328 6.939609 -2.458615
2012-04-27 09:04:03 51°13.69 2°52.48 16.9938 1.061239 6.801359 -2.458615
2012-04-27 09:04:08 51°13.69 2°52.479 16.992 1.099459 7.066735 -2.458615
2012-04-27 09:04:13 51°13.69 2°52.479 17.0074 1.099459 7.066735 -2.458615
2012-04-27 09:04:17 51°13.69 2°52.478 17.0029 1.081122 6.939721 -2.458615
2012-04-27 09:04:23 51°13.69 2°52.477 17.0019 1.061239 6.802866 -2.458615
2012-04-27 09:04:28 51°13.689 2°52.477 16.9608 1.087303 6.982899 -2.458615
2012-04-27 09:04:33 51°13.689 2°52.476 16.9841 1.29246 8.418087 -2.458615
2012-04-27 09:04:37 51°13.689 2°52.476 16.9941 1.111101 7.149851 -2.458615
2012-04-27 09:04:43 51°13.689 2°52.475 17.012 1.111101 7.149851 -2.458615
2012-04-27 09:04:48 51°13.689 2°52.475 16.9958 1.14201 7.360864 -2.458615
2012-04-27 09:04:53 51°13.689 2°52.474 16.9987 1.08277 6.946 -2.458615
2012-04-27 09:04:58 51°13.688 2°52.474 17.0144 1.078443 6.914675 -2.458615
2012-04-27 09:05:02 51°13.688 2°52.474 17.008 1.017562 6.494962 -2.458615
2012-04-27 09:05:08 51°13.687 2°52.474 17.0014 1.101314 7.073322 -2.458615
2012-04-27 09:05:13 51°13.687 2°52.474 17.0083 1.101314 7.073322 -2.458615
2012-04-27 09:05:17 51°13.686 2°52.474 17.0028 1.097193 7.046472 -2.458615
2012-04-27 09:05:23 51°13.685 2°52.475 17.0053 1.105332 7.104303 -2.458615
2012-04-27 09:05:28 51°13.685 2°52.476 16.9792 1.095441 7.03655 -2.458615
2012-04-27 09:05:33 51°13.684 2°52.476 17.0063 1.078958 6.923088 -2.458615
2012-04-27 09:05:38 51°13.683 2°52.478 17.0128 1.186419 7.671173 -2.458615
2012-04-27 09:05:43 51°13.681 2°52.479 17.0131 1.186419 7.671173 -2.458615
2012-04-27 09:05:48 51°13.68 2°52.48 16.9885 1.163029 7.509689 -2.458615
2012-04-27 09:05:53 51°13.679 2°52.481 17.0135 1.125937 7.253564 -2.458615
2012-04-27 09:05:58 51°13.677 2°52.483 17.0046 1.112338 7.159623 -2.458615
2012-04-27 09:06:03 51°13.676 2°52.485 17.011 1.059488 6.793527 -2.458615
2012-04-27 09:06:08 51°13.674 2°52.486 17.0001 1.330698 8.689559 -2.458615
2012-04-27 09:06:13 51°13.672 2°52.488 17.0099 1.330698 8.689559 -2.458615
2012-04-27 09:06:17 51°13.671 2°52.49 16.9821 1.139125 7.345684 -2.458615
2012-04-27 09:06:23 51°13.669 2°52.492 17.0044 1.126761 7.257952 -2.458615
2012-04-27 09:06:28 51°13.667 2°52.494 17.0094 1.254534 8.150603 -2.458615
2012-04-27 09:06:33 51°13.665 2°52.496 17.0094 1.072262 6.879445 -2.458615
2012-04-27 09:06:38 51°13.663 2°52.499 16.9654 1.208883 7.828732 -2.458615
2012-04-27 09:06:43 51°13.662 2°52.501 16.9835 1.208883 7.828732 -2.458615
2012-04-27 09:06:48 51°13.659 2°52.503 16.987 1.831052 12.286173 -2.458615
2012-04-27 09:06:53 51°13.657 2°52.506 16.9829 1.533893 10.136563 -2.458615
2012-04-27 09:06:58 51°13.655 2°52.508 17.0009 1.796283 12.03545 -2.458615
2012-04-27 09:07:03 51°13.653 2°52.511 16.9945 1.881301 12.656213 -2.458615
2012-04-27 09:07:08 51°13.651 2°52.513 17.0081 1.957355 13.216241 -2.458615
2012-04-27 09:07:13 51°13.649 2°52.516 17.0087 1.957355 13.216241 -2.458615
2012-04-27 09:07:18 51°13.647 2°52.519 17.0322 1.91783 12.923113 -2.458615
2012-04-27 09:07:23 51°13.644 2°52.523 17.0396 1.244744 8.082331 -2.458615
2012-04-27 09:07:28 51°13.643 2°52.528 17.0486 1.540802 10.183076 -2.458615
2012-04-27 09:07:33 51°13.641 2°52.533 17.0257 1.20373 7.792555 -2.458615
2012-04-27 09:07:39 51°13.64 2°52.541 17.0365 1.198475 7.755102 -2.458615
2012-04-27 09:07:44 51°13.64 2°52.547 17.0128 1.198475 7.755102 -2.458615
2012-04-27 09:07:49 51°13.64 2°52.553 16.9856 1.137889 7.333557 -2.458615
2012-04-27 09:07:53 51°13.64 2°52.557 16.9807 1.101314 7.078806 -2.458615
2012-04-27 09:07:58 51°13.641 2°52.562 16.9836 1.178279 7.613936 -2.458615
2012-04-27 09:08:03 51°13.641 2°52.567 16.9973 1.276382 8.302003 -2.458615
2012-04-27 09:08:08 51°13.642 2°52.572 16.9944 1.200845 7.773245 -2.458615
2012-04-27 09:08:13 51°13.643 2°52.577 17.0049 1.200845 7.773245 -2.458615
2012-04-27 09:08:17 51°13.643 2°52.581 17.0122 1.159835 7.487843 -2.458615
2012-04-27 09:08:23 51°13.644 2°52.586 17.0179 1.290605 8.40611 -2.458615
2012-04-27 09:08:28 51°13.644 2°52.591 17.0145 1.312661 8.565225 -2.458615
2012-04-27 09:08:33 51°13.644 2°52.596 17.0167 1.062784 6.819588 -2.458615
2012-04-27 09:08:38 51°13.645 2°52.601 16.9831 1.151386 7.433244 -2.458615
2012-04-27 09:08:43 51°13.645 2°52.605 17.0042 1.151386 7.433244 -2.458615
2012-04-27 09:08:48 51°13.645 2°52.61 17.0249 1.082461 6.953998 -2.458615
2012-04-27 09:08:53 51°13.645 2°52.614 17.0455 1.136446 7.329619 -2.458615
2012-04-27 09:08:58 51°13.645 2°52.619 17.0259 1.150974 7.430922 -2.458615
2012-04-27 09:09:03 51°13.645 2°52.624 17.0422 1.078958 6.929997 -2.458615
2012-04-27 09:09:08 51°13.646 2°52.628 17.0522 1.059694 6.795955 -2.458615
2012-04-27 09:09:13 51°13.647 2°52.633 17.057 1.059694 6.795955 -2.458615
2012-04-27 09:09:17 51°13.648 2°52.637 17.076 1.054852 6.76187 -2.458615
2012-04-27 09:09:23 51°13.65 2°52.643 17.0739 1.041563 6.669871 -2.458615
2012-04-27 09:09:28 51°13.653 2°52.648 17.0777 0.999948 6.382318 -2.458615
2012-04-27 09:09:33 51°13.656 2°52.652 17.0775 1.016944 6.498982 -2.458615
2012-04-27 09:09:37 51°13.659 2°52.654 17.0804 0.997991 6.369103 -2.458615
2012-04-27 09:09:43 51°13.664 2°52.657 17.0717 0.997991 6.369103 -2.458615
2012-04-27 09:09:48 51°13.669 2°52.659 17.0658 0.984704 6.277965 -2.458615
2012-04-27 09:09:53 51°13.674 2°52.659 17.0727 0.994386 6.34445 -2.458615
2012-04-27 09:09:57 51°13.677 2°52.659 17.068 0.976876 6.224257 -2.458615
2012-04-27 09:10:03 51°13.683 2°52.657 17.0808 0.949891 6.039081 -2.458615
2012-04-27 09:10:08 51°13.688 2°52.655 17.0247 0.962663 6.126611 -2.458615
2012-04-27 09:10:13 51°13.693 2°52.653 17.0424 0.962663 6.126611 -2.458615
2012-04-27 09:10:17 51°13.696 2°52.65 17.0345 0.976052 6.21872 -2.458615
2012-04-27 09:10:23 51°13.702 2°52.647 17.0337 0.995416 6.351878 -2.458615
2012-04-27 09:10:28 51°13.707 2°52.644 17.0516 0.961118 6.116708 -2.458615
2012-04-27 09:10:33 51°13.711 2°52.641 17.0274 0.981614 6.256644 -2.458615
2012-04-27 09:10:37 51°13.715 2°52.638 17.0514 0.98491 6.279031 -2.458615
2012-04-27 09:10:43 51°13.72 2°52.634 17.0447 0.98491 6.279031 -2.458615
2012-04-27 09:10:48 51°13.724 2°52.63 17.035 0.992738 6.333012 -2.458615
2012-04-27 09:10:53 51°13.728 2°52.627 17.04 0.995416 6.351409 -2.458615
2012-04-27 09:10:58 51°13.732 2°52.623 17.0526 0.993665 6.339965 -2.458615
2012-04-27 09:11:03 51°13.736 2°52.62 17.047 0.982026 6.259933 -2.458615
2012-04-27 09:11:08 51°13.74 2°52.616 17.041 0.975331 6.21412 -2.458615
2012-04-27 09:11:13 51°13.744 2°52.613 17.053 0.975331 6.21412 -2.458615
2012-04-27 09:11:18 51°13.748 2°52.609 17.048 0.972241 6.192932 -2.458615
2012-04-27 09:11:23 51°13.752 2°52.605 17.0598 0.975228 6.213758 -2.458615
2012-04-27 09:11:28 51°13.755 2°52.601 17.0459 0.977288 6.228002 -2.458615
2012-04-27 09:11:33 51°13.759 2°52.597 17.0489 0.960912 6.115748 -2.458615
2012-04-27 09:11:37 51°13.761 2°52.594 17.071 0.973477 6.201521 -2.458615
2012-04-27 09:11:43 51°13.766 2°52.589 17.0645 0.973477 6.201521 -2.458615
2012-04-27 09:11:48 51°13.769 2°52.585 17.0497 0.981614 6.257453 -2.458615
2012-04-27 09:11:53 51°13.772 2°52.581 17.0552 0.956792 6.087087 -2.458615
2012-04-27 09:11:57 51°13.775 2°52.578 17.0431 0.968533 6.167515 -2.458615
2012-04-27 09:12:03 51°13.779 2°52.572 17.0642 0.955453 6.078034 -2.458615
2012-04-27 09:12:08 51°13.782 2°52.568 17.0562 0.961324 6.118005 -2.458615
2012-04-27 09:12:13 51°13.785 2°52.563 17.0616 0.961324 6.118005 -2.458615
2012-04-27 09:12:18 51°13.788 2°52.559 17.0655 0.982644 6.264521 -2.458615
2012-04-27 09:12:23 51°13.79 2°52.554 17.0574 0.962148 6.124214 -2.458615
2012-04-27 09:12:28 51°13.793 2°52.549 17.061 0.952981 6.061451 -2.458615
2012-04-27 09:12:33 51°13.796 2°52.544 17.0729 0.947008 6.020246 -2.458615
2012-04-27 09:12:37 51°13.798 2°52.541 17.0963 0.926203 5.877771 -2.458615
2012-04-27 09:12:43 51°13.801 2°52.535 17.0971 0.926203 5.877771 -2.458615
2012-04-27 09:12:48 51°13.804 2°52.53 17.0794 0.878419 5.551682 -2.458615
2012-04-27 09:12:53 51°13.807 2°52.525 17.0585 0.852263 5.374077 -2.458615
2012-04-27 09:12:58 51°13.809 2°52.52 17.054 0.918685 5.825508 -2.458615
2012-04-27 09:13:03 51°13.812 2°52.515 17.0827 0.89953 5.695009 -2.458615
2012-04-27 09:13:08 51°13.814 2°52.511 17.0755 0.900869 5.704332 -2.458615
2012-04-27 09:13:13 51°13.816 2°52.506 17.0706 0.900869 5.704332 -2.458615
2012-04-27 09:13:18 51°13.819 2°52.501 17.0598 0.903547 5.722773 -2.458615
2012-04-27 09:13:23 51°13.821 2°52.496 17.071 0.907666 5.751148 -2.458615
2012-04-27 09:13:28 51°13.823 2°52.491 17.0797 0.900045 5.699461 -2.458615
2012-04-27 09:13:33 51°13.825 2°52.486 17.0783 0.920024 5.835608 -2.458615
2012-04-27 09:13:37 51°13.827 2°52.482 17.0801 0.92229 5.850957 -2.458615
2012-04-27 09:13:43 51°13.83 2°52.476 17.081 0.92229 5.850957 -2.458615
2012-04-27 09:13:48 51°13.832 2°52.471 17.0739 0.906739 5.744198 -2.458615
2012-04-27 09:13:53 51°13.835 2°52.466 17.0691 0.888717 5.620935 -2.458615
2012-04-27 09:13:57 51°13.836 2°52.462 17.0115 0.922908 5.853444 -2.458615
2012-04-27 09:14:03 51°13.839 2°52.456 17.0573 0.937944 5.957074 -2.458615
2012-04-27 09:14:08 51°13.841 2°52.451 17.031 0.953599 6.064225 -2.458615
2012-04-27 09:14:13 51°13.843 2°52.446 17.0576 0.953599 6.064225 -2.458615
2012-04-27 09:14:18 51°13.845 2°52.441 17.0472 0.921157 5.842797 -2.458615
2012-04-27 09:14:22 51°13.847 2°52.437 17.0721 0.938974 5.964771 -2.458615
2012-04-27 09:14:28 51°13.849 2°52.432 17.0649 0.931456 5.913521 -2.458615
2012-04-27 09:14:33 51°13.851 2°52.427 17.0639 0.940931 5.978586 -2.458615
2012-04-27 09:14:37 51°13.852 2°52.424 17.0599 0.973992 6.205281 -2.458615
2012-04-27 09:14:43 51°13.854 2°52.419 17.0563 0.973992 6.205281 -2.458615
2012-04-27 09:14:48 51°13.856 2°52.415 17.0585 0.97976 6.244962 -2.458615
2012-04-27 09:14:53 51°13.857 2°52.411 17.0601 0.975846 6.218456 -2.458615
2012-04-27 09:14:58 51°13.858 2°52.408 17.0674 0.944021 6.000374 -2.458615
2012-04-27 09:15:03 51°13.859 2°52.404 17.0696 0.943815 5.998633 -2.458615
2012-04-27 09:15:08 51°13.86 2°52.401 17.0608 0.954011 6.0685 -2.458615
2012-04-27 09:15:13 51°13.862 2°52.398 17.063 0.954011 6.0685 -2.458615
2012-04-27 09:15:18 51°13.863 2°52.396 17.0684 0.984086 6.274882 -2.458615
2012-04-27 09:15:23 51°13.863 2°52.393 17.0546 0.971108 6.186078 -2.458615
2012-04-27 09:15:28 51°13.864 2°52.391 17.0574 0.973168 6.200547 -2.458615
2012-04-27 09:15:33 51°13.865 2°52.388 17.069 0.945875 6.013053 -2.458615
2012-04-27 09:15:37 51°13.866 2°52.387 17.075 0.9605 6.113378 -2.458615
2012-04-27 09:15:43 51°13.866 2°52.384 17.0767 0.9605 6.113378 -2.458615
2012-04-27 09:15:48 51°13.867 2°52.382 17.0765 0.985837 6.287368 -2.458615
2012-04-27 09:15:53 51°13.867 2°52.38 17.0555 0.933001 5.925275 -2.458615
2012-04-27 09:15:57 51°13.868 2°52.379 17.0641 0.963899 6.137116 -2.458615
2012-04-27 09:16:03 51°13.868 2°52.377 17.0544 0.9674 6.161001 -2.458615
2012-04-27 09:16:08 51°13.869 2°52.375 17.0507 0.946699 6.019244 -2.458615
2012-04-27 09:16:13 51°13.869 2°52.374 17.0491 0.946699 6.019244 -2.458615
2012-04-27 09:16:17 51°13.869 2°52.373 17.061 0.9433 5.995444 -2.458615
2012-04-27 09:16:23 51°13.869 2°52.371 17.0674 0.958852 6.102092 -2.458615
2012-04-27 09:16:28 51°13.869 2°52.37 17.057 0.94639 6.016464 -2.458615
2012-04-27 09:16:33 51°13.869 2°52.369 17.0579 0.956792 6.087874 -2.458615
2012-04-27 09:16:37 51°13.869 2°52.369 17.072 0.950715 6.046168 -2.458615
2012-04-27 09:16:42 51°13.869 2°52.368 17.0374 0.950715 6.046168 -2.458615
2012-04-27 09:16:48 51°13.869 2°52.367 17.0337 0.968739 6.169268 -2.458615
2012-04-27 09:16:53 51°13.869 2°52.367 17.0541 0.966164 6.151735 -2.458615
2012-04-27 09:16:58 51°13.868 2°52.367 17.0669 0.953599 6.065568 -2.458615
2012-04-27 09:17:03 51°13.868 2°52.366 17.0721 0.929087 5.897892 -2.458615
2012-04-27 09:17:08 51°13.867 2°52.366 17.0444 0.935164 5.939283 -2.458615
2012-04-27 09:17:13 51°13.867 2°52.366 17.0642 0.935164 5.939283 -2.458615
2012-04-27 09:17:18 51°13.867 2°52.366 17.0486 0.922187 5.850686 -2.458615
2012-04-27 09:17:23 51°13.866 2°52.366 17.0652 0.954629 6.072506 -2.458615
2012-04-27 09:17:28 51°13.866 2°52.366 17.0738 0.952569 6.058967 -2.458615
2012-04-27 09:17:33 51°13.865 2°52.366 17.0747 0.964208 6.138553 -2.458615
2012-04-27 09:17:37 51°13.865 2°52.366 17.0783 0.97049 6.181841 -2.458615
2012-04-27 09:17:43 51°13.864 2°52.366 17.0616 0.97049 6.181841 -2.458615
2012-04-27 09:17:48 51°13.863 2°52.366 17.0423 0.936811 5.951201 -2.458615
2012-04-27 09:17:53 51°13.863 2°52.366 17.0609 0.962972 6.129859 -2.458615
2012-04-27 09:17:57 51°13.862 2°52.366 17.0739 0.950818 6.04665 -2.458615
2012-04-27 09:18:03 51°13.861 2°52.366 17.0714 0.960191 6.110923 -2.458615
2012-04-27 09:18:08 51°13.86 2°52.366 17.0742 0.943609 5.997778 -2.458615
2012-04-27 09:18:13 51°13.859 2°52.366 17.0672 0.943609 5.997778 -2.458615
2012-04-27 09:18:17 51°13.858 2°52.366 17.0578 0.932589 5.922132 -2.458615
2012-04-27 09:18:23 51°13.857 2°52.367 17.0606 0.96153 6.120207 -2.458615
2012-04-27 09:18:28 51°13.856 2°52.366 17.071 0.943918 5.99967 -2.458615
2012-04-27 09:18:33 51°13.855 2°52.366 17.0684 0.93228 5.919913 -2.458615
2012-04-27 09:18:37 51°13.854 2°52.366 17.0583 0.950921 6.047354 -2.458615
2012-04-27 09:18:43 51°13.853 2°52.366 17.0793 0.950921 6.047354 -2.458615
2012-04-27 09:18:48 51°13.851 2°52.366 17.0709 0.949479 6.0376 -2.458615
2012-04-27 09:18:53 51°13.85 2°52.366 17.0657 0.943609 5.997225 -2.458615
2012-04-27 09:18:57 51°13.849 2°52.365 17.0797 0.954835 6.074364 -2.458615
2012-04-27 09:19:03 51°13.847 2°52.365 17.0796 0.936605 5.949793 -2.458615
2012-04-27 09:19:08 51°13.846 2°52.365 17.0871 0.948243 6.02959 -2.458615
2012-04-27 09:19:13 51°13.845 2°52.365 17.0773 0.948243 6.02959 -2.458615
2012-04-27 09:19:18 51°13.843 2°52.364 17.071 0.959058 6.103503 -2.458615
2012-04-27 09:19:23 51°13.842 2°52.364 17.0884 0.951539 6.05203 -2.458615
2012-04-27 09:19:28 51°13.84 2°52.363 17.0833 0.936811 5.951201 -2.458615
2012-04-27 09:19:33 51°13.839 2°52.362 17.0804 0.942167 5.987809 -2.458615
2012-04-27 09:19:38 51°13.838 2°52.362 17.083 0.96565 6.148774 -2.458615
2012-04-27 09:19:43 51°13.836 2°52.361 17.0635 0.96565 6.148774 -2.458615
2012-04-27 09:19:48 51°13.834 2°52.36 17.0713 0.941343 5.982175 -2.458615
2012-04-27 09:19:53 51°13.833 2°52.36 17.0866 0.939901 5.972208 -2.458615
2012-04-27 09:19:58 51°13.831 2°52.359 17.0623 0.962148 6.124667 -2.458615
2012-04-27 09:20:03 51°13.83 2°52.358 17.0739 0.951436 6.051437 -2.458615
2012-04-27 09:20:08 51°13.828 2°52.357 17.0711 0.955453 6.079156 -2.458615
2012-04-27 09:20:13 51°13.827 2°52.356 17.0729 0.955453 6.079156 -2.458615
2012-04-27 09:20:17 51°13.825 2°52.355 17.064 0.933516 5.929121 -2.458615
2012-04-27 09:20:23 51°13.823 2°52.354 17.0815 0.960603 6.11431 -2.458615
2012-04-27 09:20:28 51°13.822 2°52.353 17.0678 0.958749 6.101499 -2.458615
2012-04-27 09:20:33 51°13.82 2°52.352 17.083 0.951333 6.050956 -2.458615
2012-04-27 09:20:37 51°13.819 2°52.351 17.0652 0.964826 6.143127 -2.458615
2012-04-27 09:20:43 51°13.817 2°52.349 17.0746 0.964826 6.143127 -2.458615
2012-04-27 09:20:48 51°13.815 2°52.348 17.0749 0.980069 6.247774 -2.458615
2012-04-27 09:20:53 51°13.813 2°52.346 17.0857 0.985013 6.281826 -2.458615
2012-04-27 09:20:58 51°13.812 2°52.345 17.0872 0.952981 6.062346 -2.458615
2012-04-27 09:21:02 51°13.81 2°52.344 17.096 0.964002 6.137822 -2.458615
2012-04-27 09:21:08 51°13.808 2°52.342 17.0822 0.98388 6.274395 -2.458615
2012-04-27 09:21:13 51°13.806 2°52.34 17.0968 0.98388 6.274395 -2.458615
2012-04-27 09:21:18 51°13.805 2°52.338 17.0809 0.9433 5.996551 -2.458615
2012-04-27 09:21:23 51°13.803 2°52.336 17.0558 0.973271 6.201712 -2.458615
2012-04-27 09:21:28 51°13.801 2°52.335 17.0702 0.949891 6.041646 -2.458615
2012-04-27 09:21:33 51°13.8 2°52.332 17.0878 0.975846 6.219719 -2.458615
2012-04-27 09:21:37 51°13.798 2°52.331 17.0883 0.966165 6.153098 -2.458615
2012-04-27 09:21:43 51°13.796 2°52.329 17.0718 0.966165 6.153098 -2.458615
2012-04-27 09:21:48 51°13.795 2°52.327 17.0882 0.972962 6.199936 -2.458615
2012-04-27 09:21:53 51°13.793 2°52.324 17.0812 0.968842 6.171456 -2.458615
2012-04-27 09:21:57 51°13.792 2°52.323 17.0925 0.958646 6.101583 -2.458615
2012-04-27 09:22:03 51°13.79 2°52.32 17.0708 0.964105 6.138867 -2.458615
2012-04-27 09:22:08 51°13.789 2°52.318 17.0852 0.95432 6.071736 -2.458615
2012-04-27 09:22:13 51°13.788 2°52.315 17.0809 0.95432 6.071736 -2.458615
2012-04-27 09:22:17 51°13.786 2°52.314 17.0672 0.966782 6.156879 -2.458615
2012-04-27 09:22:23 51°13.785 2°52.311 17.0542 0.972447 6.195832 -2.458615
2012-04-27 09:22:28 51°13.784 2°52.309 17.0711 0.945875 6.013608 -2.458615
2012-04-27 09:22:33 51°13.783 2°52.306 17.0825 0.980584 6.251655 -2.458615
2012-04-27 09:22:37 51°13.782 2°52.305 17.0744 0.965135 6.145585 -2.458615
2012-04-27 09:22:43 51°13.781 2°52.302 17.092 0.965135 6.145585 -2.458615
2012-04-27 09:22:48 51°13.78 2°52.3 17.0886 0.976361 6.222563 -2.458615
2012-04-27 09:22:53 51°13.779 2°52.298 17.0671 0.969357 6.174644 -2.458615
2012-04-27 09:22:58 51°13.779 2°52.296 17.0866 1.001391 6.394709 -2.458615
2012-04-27 09:23:02 51°13.778 2°52.294 17.0939 0.967812 6.163939 -2.458615
2012-04-27 09:23:08 51°13.777 2°52.292 17.0963 0.990266 6.318251 -2.458615
2012-04-27 09:23:13 51°13.777 2°52.29 17.0918 0.990266 6.318251 -2.458615
2012-04-27 09:23:17 51°13.776 2°52.289 17.0862 0.965753 6.149934 -2.458615
2012-04-27 09:23:23 51°13.776 2°52.287 17.0982 0.968739 6.170294 -2.458615
2012-04-27 09:23:28 51°13.776 2°52.285 17.1018 0.961839 6.123002 -2.458615
2012-04-27 09:23:33 51°13.776 2°52.284 17.0866 0.969151 6.172776 -2.458615
2012-04-27 09:23:38 51°13.776 2°52.283 17.0881 0.990369 6.318492 -2.458615
2012-04-27 09:23:43 51°13.776 2°52.283 17.0765 0.990369 6.318492 -2.458615
2012-04-27 09:23:48 51°13.776 2°52.283 17.071 0.955247 6.077746 -2.458615
2012-04-27 09:23:53 51°13.776 2°52.284 17.0751 0.956483 6.086095 -2.458615
2012-04-27 09:23:58 51°13.776 2°52.285 17.0783 0.952672 6.060008 -2.458615
2012-04-27 09:24:03 51°13.776 2°52.286 17.042 0.986764 6.293965 -2.458615
2012-04-27 09:24:08 51°13.776 2°52.288 17.0435 0.963075 6.131583 -2.458615
2012-04-27 09:24:13 51°13.776 2°52.29 17.0296 0.963075 6.131583 -2.458615
2012-04-27 09:24:17 51°13.776 2°52.292 17.0197 0.969975 6.178881 -2.458615
2012-04-27 09:24:23 51°13.776 2°52.295 17.031 1.03085 6.597812 -2.458615
2012-04-27 09:24:28 51°13.775 2°52.298 17.0886 1.034662 6.6252 -2.458615
2012-04-27 09:24:33 51°13.774 2°52.3 17.0916 1.150665 7.431929 -2.458615
2012-04-27 09:24:38 51°13.773 2°52.303 17.0891 1.136859 7.335878 -2.458615
2012-04-27 09:24:43 51°13.773 2°52.305 17.0792 1.136859 7.335878 -2.458615
2012-04-27 09:24:48 51°13.772 2°52.308 17.077 1.120065 7.218225 -2.458615
2012-04-27 09:24:53 51°13.771 2°52.311 17.0687 1.105126 7.114432 -2.458615
2012-04-27 09:24:58 51°13.77 2°52.314 17.0829 1.255977 8.167832 -2.458615
2012-04-27 09:25:03 51°13.769 2°52.316 17.0885 1.15829 7.483573 -2.458615
2012-04-27 09:25:08 51°13.768 2°52.32 17.1031 1.181473 7.643991 -2.458615
2012-04-27 09:25:13 51°13.767 2°52.323 17.0828 1.181473 7.643991 -2.458615
2012-04-27 09:25:17 51°13.766 2°52.325 17.0685 1.123156 7.235836 -2.458615
2012-04-27 09:25:23 51°13.764 2°52.329 17.0791 1.139846 7.349888 -2.458615
2012-04-27 09:25:28 51°13.763 2°52.333 17.0772 1.160762 7.493752 -2.458615
2012-04-27 09:25:33 51°13.762 2°52.337 17.0885 1.135107 7.314619 -2.458615
2012-04-27 09:25:37 51°13.761 2°52.339 17.072 1.155817 7.457641 -2.458615
2012-04-27 09:25:43 51°13.759 2°52.344 17.0544 1.155817 7.457641 -2.458615
2012-04-27 09:25:48 51°13.757 2°52.347 17.0661 1.092557 7.017736 -2.458615
2012-04-27 09:25:53 51°13.756 2°52.351 17.0822 1.064536 6.824512 -2.458615
2012-04-27 09:25:58 51°13.754 2°52.354 17.1078 1.070511 6.86708 -2.458615
2012-04-27 09:26:03 51°13.753 2°52.357 17.1002 1.132943 7.302678 -2.458615
2012-04-27 09:26:08 51°13.751 2°52.36 17.0718 1.07834 6.925716 -2.458615
2012-04-27 09:26:13 51°13.75 2°52.363 17.0555 1.07834 6.925716 -2.458615
2012-04-27 09:26:17 51°13.749 2°52.366 17.0506 1.097502 7.058773 -2.458615
2012-04-27 09:26:23 51°13.747 2°52.369 17.0489 1.115944 7.186788 -2.458615
2012-04-27 09:26:28 51°13.746 2°52.372 17.0496 1.195384 7.739935 -2.458615
2012-04-27 09:26:33 51°13.744 2°52.374 17.0548 1.511415 9.974279 -2.458615
2012-04-27 09:26:38 51°13.743 2°52.376 17.0804 1.183225 7.650287 -2.458615
2012-04-27 09:26:43 51°13.742 2°52.379 17.0906 1.183225 7.650287 -2.458615
2012-04-27 09:26:48 51°13.74 2°52.381 17.0737 1.072983 6.883543 -2.458615
2012-04-27 09:26:53 51°13.739 2°52.383 17.082 1.167048 7.536171 -2.458615
2012-04-27 09:26:57 51°13.738 2°52.384 17.0861 1.598859 10.597715 -2.458615
2012-04-27 09:27:03 51°13.736 2°52.386 17.0925 1.554929 10.287632 -2.458615
2012-04-27 09:27:08 51°13.735 2°52.388 17.0874 1.92041 12.94685 -2.458615
2012-04-27 09:27:13 51°13.734 2°52.389 17.0728 1.92041 12.94685 -2.458615
2012-04-27 09:27:17 51°13.732 2°52.39 17.0748 1.490897 9.832472 -2.458615
2012-04-27 09:27:23 51°13.731 2°52.392 17.0562 1.827235 12.263981 -2.458615
2012-04-27 09:27:28 51°13.729 2°52.393 17.055 1.901526 12.805396 -2.458615
2012-04-27 09:27:33 51°13.728 2°52.394 17.0761 1.976138 13.35328 -2.458615
2012-04-27 09:27:37 51°13.727 2°52.395 17.0814 1.918036 12.923191 -2.458615
2012-04-27 09:27:43 51°13.725 2°52.396 17.0764 1.918036 12.923191 -2.458615
2012-04-27 09:27:48 51°13.724 2°52.397 17.0833 1.681677 11.198246 -2.458615
2012-04-27 09:27:53 51°13.722 2°52.397 17.0963 1.612369 10.697726 -2.458615
2012-04-27 09:27:57 51°13.722 2°52.398 17.0625 1.954774 13.191878 -2.458615
2012-04-27 09:28:03 51°13.72 2°52.398 17.0653 1.883571 12.66979 -2.458615
2012-04-27 09:28:08 51°13.719 2°52.399 17.0979 1.726753 11.524387 -2.458615
2012-04-27 09:28:13 51°13.718 2°52.399 17.0864 1.726753 11.524387 -2.458615
2012-04-27 09:28:17 51°13.717 2°52.399 17.1081 1.567509 10.374319 -2.458615
2012-04-27 09:28:23 51°13.716 2°52.4 17.1065 1.863244 12.518445 -2.458615
2012-04-27 09:28:28 51°13.715 2°52.4 17.1025 1.581431 10.475694 -2.458615
2012-04-27 09:28:33 51°13.714 2°52.4 17.1066 1.796077 12.03127 -2.458615
2012-04-27 09:28:38 51°13.713 2°52.399 17.1246 1.082152 6.951087 -2.458615
2012-04-27 09:28:43 51°13.712 2°52.4 17.1113 1.082152 6.951087 -2.458615
2012-04-27 09:28:48 51°13.711 2°52.399 17.1367 1.25979 8.190091 -2.458615
2012-04-27 09:28:53 51°13.71 2°52.399 17.1063 1.090909 7.01085 -2.458615
2012-04-27 09:28:58 51°13.709 2°52.399 17.1359 1.065154 6.832947 -2.458615
2012-04-27 09:29:03 51°13.708 2°52.399 17.1186 1.092969 7.026169 -2.458615
2012-04-27 09:29:08 51°13.707 2°52.398 17.1183 1.086479 6.982866 -2.458615
2012-04-27 09:29:13 51°13.707 2°52.398 17.1301 1.086479 6.982866 -2.458615
2012-04-27 09:29:17 51°13.706 2°52.398 17.1331 1.045684 6.70128 -2.458615
2012-04-27 09:29:23 51°13.704 2°52.398 17.1199 1.074631 6.902081 -2.458615
2012-04-27 09:29:28 51°13.703 2°52.399 17.1046 1.115532 7.188709 -2.458615
2012-04-27 09:29:33 51°13.701 2°52.4 17.0576 1.051659 6.747541 -2.458615
2012-04-27 09:29:37 51°13.699 2°52.4 17.0843 1.061033 6.813649 -2.458615
2012-04-27 09:29:43 51°13.696 2°52.401 17.1066 1.061033 6.813649 -2.458615
2012-04-27 09:29:48 51°13.693 2°52.402 17.1002 1.209707 7.852639 -2.458615
2012-04-27 09:29:53 51°13.69 2°52.403 17.0956 1.130986 7.302156 -2.458615
2012-04-27 09:29:58 51°13.687 2°52.404 17.0865 1.115841 7.196584 -2.458615
2012-04-27 09:30:02 51°13.684 2°52.404 17.0748 1.079061 6.940717 -2.458615
2012-04-27 09:30:08 51°13.68 2°52.404 17.0943 1.16066 7.509408 -2.458615
2012-04-27 09:30:13 51°13.676 2°52.403 17.0861 1.16066 7.509408 -2.458615
2012-04-27 09:30:17 51°13.673 2°52.403 17.1114 1.087097 6.997888 -2.458615
2012-04-27 09:30:23 51°13.668 2°52.401 17.1044 1.187759 7.70116 -2.458615
2012-04-27 09:30:28 51°13.663 2°52.4 17.1139 1.108938 7.152282 -2.458615
2012-04-27 09:30:33 51°13.659 2°52.398 17.1282 1.149429 7.432524 -2.458615
2012-04-27 09:30:38 51°13.654 2°52.395 17.1356 1.08957 7.014142 -2.458615
2012-04-27 09:30:43 51°13.649 2°52.392 17.1432 1.08957 7.014142 -2.458615
2012-04-27 09:30:48 51°13.643 2°52.388 17.1286 1.10935 7.151704 -2.458615
2012-04-27 09:30:53 51°13.637 2°52.383 17.1328 1.06742 6.860664 -2.458615
2012-04-27 09:30:58 51°13.631 2°52.378 17.1355 1.111926 7.170944 -2.458615
2012-04-27 09:31:03 51°13.625 2°52.373 17.1427 1.165812 7.549032 -2.458615
2012-04-27 09:31:08 51°13.619 2°52.367 17.1396 1.072262 6.897794 -2.458615
2012-04-27 09:31:13 51°13.612 2°52.361 17.1377 1.072262 6.897794 -2.458615
2012-04-27 09:31:17 51°13.607 2°52.356 17.1253 1.067008 6.860985 -2.458615
2012-04-27 09:31:23 51°13.599 2°52.349 17.1203 1.05341 6.766913 -2.458615
2012-04-27 09:31:28 51°13.593 2°52.343 17.1193 1.096266 7.065482 -2.458615
2012-04-27 09:31:33 51°13.587 2°52.337 17.148 1.076795 6.929877 -2.458615
2012-04-27 09:31:37 51°13.582 2°52.331 17.1177 1.051968 6.757305 -2.458615
2012-04-27 09:31:43 51°13.575 2°52.324 17.1497 1.051968 6.757305 -2.458615
2012-04-27 09:31:48 51°13.569 2°52.317 17.1179 1.049805 6.742955 -2.458615
2012-04-27 09:31:53 51°13.563 2°52.311 17.1225 1.094309 7.052009 -2.458615
2012-04-27 09:31:57 51°13.558 2°52.306 17.1506 1.046611 6.720729 -2.458615
2012-04-27 09:32:03 51°13.552 2°52.299 17.1361 1.088127 7.007505 -2.458615
2012-04-27 09:32:08 51°13.547 2°52.292 17.1479 1.039607 6.670047 -2.458615
2012-04-27 09:32:13 51°13.542 2°52.286 17.1596 1.039607 6.670047 -2.458615
2012-04-27 09:32:17 51°13.538 2°52.281 17.149 1.07185 6.892254 -2.458615
2012-04-27 09:32:22 51°13.533 2°52.275 17.1567 1.043624 6.695842 -2.458615
2012-04-27 09:32:28 51°13.528 2°52.269 17.1455 1.037134 6.650248 -2.458615
2012-04-27 09:32:33 51°13.523 2°52.263 17.1547 1.04383 6.69615 -2.458615
2012-04-27 09:32:37 51°13.52 2°52.258 17.1562 1.045993 6.710733 -2.458615
2012-04-27 09:32:43 51°13.515 2°52.252 17.1658 1.045993 6.710733 -2.458615
2012-04-27 09:32:48 51°13.511 2°52.246 17.1582 1.070099 6.877568 -2.458615
2012-04-27 09:32:53 51°13.507 2°52.241 17.1648 1.107908 7.139823 -2.458615
2012-04-27 09:32:58 51°13.504 2°52.236 17.1566 1.043212 6.691259 -2.458615
2012-04-27 09:33:03 51°13.5 2°52.231 17.1518 1.137786 7.347364 -2.458615
2012-04-27 09:33:08 51°13.497 2°52.226 17.1529 1.103581 7.109883 -2.458615
2012-04-27 09:33:13 51°13.494 2°52.221 17.1527 1.103581 7.109883 -2.458615
2012-04-27 09:33:18 51°13.491 2°52.216 17.1624 1.052277 6.75194 -2.458615
2012-04-27 09:33:23 51°13.488 2°52.212 17.1614 1.113059 7.172451 -2.458615
2012-04-27 09:33:28 51°13.485 2°52.208 17.1653 1.028584 6.588031 -2.458615
2012-04-27 09:33:33 51°13.482 2°52.203 17.1575 1.11955 7.219585 -2.458615
2012-04-27 09:33:37 51°13.48 2°52.2 17.1658 1.029099 6.594147 -2.458615
2012-04-27 09:33:43 51°13.477 2°52.195 17.1623 1.029099 6.594147 -2.458615
2012-04-27 09:33:48 51°13.475 2°52.191 17.1729 1.067729 6.860646 -2.458615
2012-04-27 09:33:53 51°13.472 2°52.187 17.1519 1.054337 6.767566 -2.458615
2012-04-27 09:33:57 51°13.47 2°52.184 17.1455 1.060518 6.81021 -2.458615
2012-04-27 09:34:03 51°13.468 2°52.179 17.1581 1.075765 6.91581 -2.458615
2012-04-27 09:34:08 51°13.466 2°52.175 17.1627 1.03734 6.649579 -2.458615
2012-04-27 09:34:13 51°13.464 2°52.172 17.1716 1.03734 6.649579 -2.458615
2012-04-27 09:34:18 51°13.462 2°52.168 17.1767 1.057634 6.789996 -2.458615
2012-04-27 09:34:22 51°13.46 2°52.164 17.1536 1.017769 6.514762 -2.458615
2012-04-27 09:34:28 51°13.458 2°52.16 17.1778 1.027245 6.580739 -2.458615